Observation data for Sierra Blanca on 02/24/2019      Previous  Date  Next       Current Mesonet Observations  Soil Data  Daily Summary Page  Observations in Plain Language
KSB1 240600Z 25002KT 01/M08 A3028 RMK A01 T00141080  RH  049%=      5-min Rain = 0
KSB1 240601Z 25003KT 02/M08 A3028 RMK A01 T00151080  RH  049%=      5-min Rain = 0
KSB1 240602Z 25004KT 02/M08 A3028 RMK A01 T00161081  RH  049%=      5-min Rain = 0
KSB1 240603Z 26004KT 02/M08 A3029 RMK A01 T00161082  RH  048%=      5-min Rain = 0
KSB1 240604Z 26005KT 02/M08 A3029 RMK A01 T00151083  RH  048%=      5-min Rain = 0
KSB1 240605Z 26006KT 02/M08 A3029 RMK A01 T00151081  RH  049%=      5-min Rain = 0
KSB1 240606Z 26006KT 02/M08 A3029 RMK A01 T00191078  RH  049%=      5-min Rain = 0
KSB1 240607Z 27006KT 02/M08 A3028 RMK A01 T00221078  RH  048%=      5-min Rain = 0
KSB1 240608Z 27006KT 03/M08 A3028 RMK A01 T00261078  RH  046%=      5-min Rain = 0
KSB1 240609Z 27006KT 03/M08 A3028 RMK A01 T00271078  RH  046%=      5-min Rain = 0
KSB1 240610Z 27006KT 03/M08 A3028 RMK A01 T00281079  RH  045%=      5-min Rain = 0
KSB1 240611Z 28005KT 03/M08 A3028 RMK A01 T00291079  RH  045%=      5-min Rain = 0
KSB1 240612Z 30005KT 03/M08 A3028 RMK A01 T00291079  RH  045%=      5-min Rain = 0
KSB1 240613Z 32004KT 03/M08 A3028 RMK A01 T00291079  RH  045%=      5-min Rain = 0
KSB1 240614Z 31002KT 03/M08 A3028 RMK A01 T00301079  RH  045%=      5-min Rain = 0
KSB1 240615Z 33001KT 03/M08 A3028 RMK A01 T00311079  RH  044%=      5-min Rain = 0
KSB1 240616Z 28001KT 03/M08 A3028 RMK A01 T00311079  RH  044%=      5-min Rain = 0
KSB1 240617Z 34001KT 03/M08 A3029 RMK A01 T00321079  RH  044%=      5-min Rain = 0
KSB1 240618Z 06001KT 03/M08 A3029 RMK A01 T00311079  RH  044%=      5-min Rain = 0
KSB1 240619Z 08001KT 03/M08 A3029 RMK A01 T00291081  RH  044%=      5-min Rain = 0
KSB1 240620Z 04002KT 03/M08 A3029 RMK A01 T00261081  RH  045%=      5-min Rain = 0
KSB1 240621Z 07001KT 02/M08 A3029 RMK A01 T00231081  RH  046%=      5-min Rain = 0
KSB1 240622Z 32001KT 02/M08 A3028 RMK A01 T00221081  RH  047%=      5-min Rain = 0
KSB1 240623Z 25000KT 02/M08 A3028 RMK A01 T00231079  RH  047%=      5-min Rain = 0
KSB1 240624Z 05001KT 02/M08 A3028 RMK A01 T00241079  RH  046%=      5-min Rain = 0
KSB1 240625Z 34002KT 02/M08 A3028 RMK A01 T00231080  RH  046%=      5-min Rain = 0
KSB1 240626Z 02001KT 02/M08 A3028 RMK A01 T00231080  RH  046%=      5-min Rain = 0
KSB1 240627Z 02002KT 02/M08 A3028 RMK A01 T00231080  RH  046%=      5-min Rain = 0
KSB1 240628Z 02003KT 02/M08 A3028 RMK A01 T00221081  RH  047%=      5-min Rain = 0
KSB1 240629Z 02002KT 02/M08 A3028 RMK A01 T00191081  RH  047%=      5-min Rain = 0
KSB1 240630Z 02002KT 02/M08 A3028 RMK A01 T00181081  RH  048%=      5-min Rain = 0
KSB1 240631Z 02003KT 02/M08 A3028 RMK A01 T00151082  RH  049%=      5-min Rain = 0
KSB1 240632Z 02002KT 01/M08 A3028 RMK A01 T00131081  RH  049%=      5-min Rain = 0
KSB1 240633Z 00003KT 01/M08 A3028 RMK A01 T00111081  RH  050%=      5-min Rain = 0
KSB1 240634Z 32002KT 01/M08 A3028 RMK A01 T00101081  RH  051%=      5-min Rain = 0
KSB1 240635Z 31005KT 01/M08 A3028 RMK A01 T00101081  RH  051%=      5-min Rain = 0
KSB1 240636Z 31009KT 01/M08 A3028 RMK A01 T00121078  RH  051%=      5-min Rain = 0
KSB1 240637Z 31009KT 03/M07 A3028 RMK A01 T00261070  RH  049%=      5-min Rain = 0
KSB1 240638Z 31010KT 04/M07 A3028 RMK A01 T00371071  RH  045%=      5-min Rain = 0
KSB1 240639Z 31008KT 04/M07 A3028 RMK A01 T00441072  RH  043%=      5-min Rain = 0
KSB1 240640Z 32007KT 05/M07 A3028 RMK A01 T00461073  RH  041%=      5-min Rain = 0
KSB1 240641Z 31006KT 04/M08 A3028 RMK A01 T00421078  RH  041%=      5-min Rain = 0
KSB1 240642Z 31007KT 04/M08 A3028 RMK A01 T00381077  RH  043%=      5-min Rain = 0
KSB1 240643Z 30009KT 04/M08 A3028 RMK A01 T00411075  RH  043%=      5-min Rain = 0
KSB1 240644Z 31008KT 05/M07 A3028 RMK A01 T00461073  RH  042%=      5-min Rain = 0
KSB1 240645Z 31006KT 05/M08 A3028 RMK A01 T00481075  RH  041%=      5-min Rain = 0
KSB1 240646Z 31007KT 05/M08 A3028 RMK A01 T00461076  RH  041%=      5-min Rain = 0
KSB1 240647Z 32006KT 04/M08 A3028 RMK A01 T00441077  RH  041%=      5-min Rain = 0
KSB1 240648Z 34004KT 04/M08 A3028 RMK A01 T00421077  RH  042%=      5-min Rain = 0
KSB1 240649Z 31003KT 04/M08 A3028 RMK A01 T00361083  RH  041%=      5-min Rain = 0
KSB1 240650Z 31006KT 03/M08 A3028 RMK A01 T00301083  RH  043%=      5-min Rain = 0
KSB1 240651Z 31009KT 03/M08 A3027 RMK A01 T00321078  RH  044%=      5-min Rain = 0
KSB1 240652Z 31008KT 04/M08 A3027 RMK A01 T00401075  RH  043%=      5-min Rain = 0
KSB1 240653Z 30010KT 05/M08 A3027 RMK A01 T00451075  RH  041%=      5-min Rain = 0
KSB1 240654Z 30012KT 05/M07 A3027 RMK A01 T00491074  RH  040%=      5-min Rain = 0
KSB1 240655Z 30010KT 05/M08 A3027 RMK A01 T00521075  RH  039%=      5-min Rain = 0
KSB1 240656Z 29010KT 06/M08 A3027 RMK A01 T00551075  RH  039%=      5-min Rain = 0
KSB1 240657Z 29009KT 06/M08 A3028 RMK A01 T00551076  RH  038%=      5-min Rain = 0
KSB1 240658Z 29007KT 06/M08 A3028 RMK A01 T00551077  RH  038%=      5-min Rain = 0
KSB1 240659Z 29006KT 05/M08 A3028 RMK A01 T00541077  RH  038%=      5-min Rain = 0
KSB1 240700Z 29006KT 05/M08 A3028 RMK A01 T00531077  RH  039%=      5-min Rain = 0
KSB1 240701Z 29007KT 05/M08 A3028 RMK A01 T00521077  RH  039%=      5-min Rain = 0
KSB1 240702Z 30008KT 05/M08 A3028 RMK A01 T00521077  RH  039%=      5-min Rain = 0
KSB1 240703Z 30007KT 05/M08 A3028 RMK A01 T00521077  RH  039%=      5-min Rain = 0
KSB1 240704Z 30009KT 05/M08 A3028 RMK A01 T00511077  RH  039%=      5-min Rain = 0
KSB1 240705Z 30010KT 05/M08 A3028 RMK A01 T00511077  RH  039%=      5-min Rain = 0
KSB1 240706Z 30011KT 05/M08 A3028 RMK A01 T00511077  RH  039%=      5-min Rain = 0
KSB1 240707Z 30010KT 05/M08 A3028 RMK A01 T00521077  RH  039%=      5-min Rain = 0
KSB1 240708Z 29008KT 05/M08 A3028 RMK A01 T00521077  RH  039%=      5-min Rain = 0
KSB1 240709Z 30009KT 05/M08 A3028 RMK A01 T00521078  RH  039%=      5-min Rain = 0
KSB1 240710Z 30008KT 05/M08 A3028 RMK A01 T00511078  RH  039%=      5-min Rain = 0
KSB1 240711Z 30008KT 05/M08 A3028 RMK A01 T00511078  RH  039%=      5-min Rain = 0
KSB1 240712Z 30008KT 05/M08 A3028 RMK A01 T00511077  RH  039%=      5-min Rain = 0
KSB1 240713Z 30012KT 05/M08 A3028 RMK A01 T00511077  RH  039%=      5-min Rain = 0
KSB1 240714Z 30013KT 05/M08 A3028 RMK A01 T00521076  RH  039%=      5-min Rain = 0
KSB1 240715Z 30013KT 05/M08 A3028 RMK A01 T00531076  RH  039%=      5-min Rain = 0
KSB1 240716Z 30014KT 05/M08 A3027 RMK A01 T00541076  RH  039%=      5-min Rain = 0
KSB1 240717Z 30014KT 05/M08 A3027 RMK A01 T00541075  RH  039%=      5-min Rain = 0
KSB1 240718Z 30014KT 06/M08 A3027 RMK A01 T00551075  RH  039%=      5-min Rain = 0
KSB1 240719Z 30014KT 06/M08 A3027 RMK A01 T00551075  RH  039%=      5-min Rain = 0
KSB1 240720Z 30013KT 06/M07 A3027 RMK A01 T00551074  RH  039%=      5-min Rain = 0
KSB1 240721Z 30013KT 05/M07 A3027 RMK A01 T00541074  RH  039%=      5-min Rain = 0
KSB1 240722Z 30012KT 05/M07 A3027 RMK A01 T00541074  RH  039%=      5-min Rain = 0
KSB1 240723Z 30013KT 05/M07 A3027 RMK A01 T00541074  RH  039%=      5-min Rain = 0
KSB1 240724Z 30013KT 05/M07 A3027 RMK A01 T00541074  RH  039%=      5-min Rain = 0
KSB1 240725Z 30012KT 05/M07 A3027 RMK A01 T00541074  RH  039%=      5-min Rain = 0
KSB1 240726Z 30012KT 05/M08 A3027 RMK A01 T00541075  RH  039%=      5-min Rain = 0
KSB1 240727Z 30013KT 05/M08 A3027 RMK A01 T00541075  RH  039%=      5-min Rain = 0
KSB1 240728Z 30012KT 05/M08 A3027 RMK A01 T00541075  RH  039%=      5-min Rain = 0
KSB1 240729Z 30013KT 05/M08 A3027 RMK A01 T00541075  RH  039%=      5-min Rain = 0
KSB1 240730Z 30013KT 05/M08 A3027 RMK A01 T00541075  RH  039%=      5-min Rain = 0
KSB1 240731Z 30013KT 05/M08 A3027 RMK A01 T00541076  RH  039%=      5-min Rain = 0
KSB1 240732Z 30013KT 06/M08 A3027 RMK A01 T00551075  RH  039%=      5-min Rain = 0
KSB1 240733Z 30013KT 06/M08 A3027 RMK A01 T00551076  RH  038%=      5-min Rain = 0
KSB1 240734Z 30013KT 06/M08 A3027 RMK A01 T00551075  RH  038%=      5-min Rain = 0
KSB1 240735Z 30010KT 06/M08 A3027 RMK A01 T00551075  RH  039%=      5-min Rain = 0
KSB1 240736Z 30008KT 05/M08 A3027 RMK A01 T00541076  RH  039%=      5-min Rain = 0
KSB1 240737Z 30008KT 05/M08 A3027 RMK A01 T00521076  RH  039%=      5-min Rain = 0
KSB1 240738Z 29008KT 05/M08 A3027 RMK A01 T00511076  RH  039%=      5-min Rain = 0
KSB1 240739Z 29008KT 05/M08 A3027 RMK A01 T00491076  RH  040%=      5-min Rain = 0
KSB1 240740Z 29008KT 05/M08 A3027 RMK A01 T00481076  RH  040%=      5-min Rain = 0
KSB1 240741Z 30007KT 05/M08 A3027 RMK A01 T00471076  RH  040%=      5-min Rain = 0
KSB1 240742Z 30007KT 05/M08 A3027 RMK A01 T00471076  RH  041%=      5-min Rain = 0
KSB1 240743Z 30006KT 05/M08 A3027 RMK A01 T00461076  RH  041%=      5-min Rain = 0
KSB1 240744Z 30006KT 05/M08 A3027 RMK A01 T00461076  RH  041%=      5-min Rain = 0
KSB1 240745Z 30006KT 05/M08 A3027 RMK A01 T00461076  RH  041%=      5-min Rain = 0
KSB1 240746Z 31008KT 05/M08 A3027 RMK A01 T00461076  RH  041%=      5-min Rain = 0
KSB1 240747Z 32007KT 05/M08 A3028 RMK A01 T00471076  RH  041%=      5-min Rain = 0
KSB1 240748Z 02002KT 04/M08 A3028 RMK A01 T00441082  RH  039%=      5-min Rain = 0
KSB1 240749Z 08002KT 03/M10 A3028 RMK A01 T00301095  RH  039%=      5-min Rain = 0
KSB1 240750Z 08003KT 02/M10 A3028 RMK A01 T00171098  RH  042%=      5-min Rain = 0
KSB1 240751Z 09005KT 01/M10 A3028 RMK A01 T00071098  RH  045%=      5-min Rain = 0
KSB1 240752Z 08002KT 00/10 A3028 RMK A01 T00000-96  RH  048%=      5-min Rain = 0
KSB1 240753Z 08003KT M00/M10 A3028 RMK A01 T10041095  RH  050%=      5-min Rain = 0
KSB1 240754Z 05002KT M01/M10 A3028 RMK A01 T10081096  RH  051%=      5-min Rain = 0
KSB1 240755Z 07004KT M01/M10 A3028 RMK A01 T10121097  RH  053%=      5-min Rain = 0
KSB1 240756Z 07006KT M02/M10 A3028 RMK A01 T10151096  RH  054%=      5-min Rain = 0
KSB1 240757Z 05005KT M02/M10 A3028 RMK A01 T10171096  RH  055%=      5-min Rain = 0
KSB1 240758Z 03004KT M02/M10 A3028 RMK A01 T10191095  RH  056%=      5-min Rain = 0
KSB1 240759Z 01005KT M02/M09 A3028 RMK A01 T10171091  RH  057%=      5-min Rain = 0
KSB1 240800Z 00004KT M01/M09 A3028 RMK A01 T10131088  RH  057%=      5-min Rain = 0
KSB1 240801Z 33005KT M01/M09 A3028 RMK A01 T10091085  RH  057%=      5-min Rain = 0
KSB1 240802Z 35004KT M00/M08 A3028 RMK A01 T10021083  RH  054%=      5-min Rain = 0
KSB1 240803Z 00003KT M00/M09 A3028 RMK A01 T10011086  RH  053%=      5-min Rain = 0
KSB1 240804Z 05003KT M00/M09 A3028 RMK A01 T10031087  RH  053%=      5-min Rain = 0
KSB1 240805Z 04004KT M01/M09 A3028 RMK A01 T10061089  RH  053%=      5-min Rain = 0
KSB1 240806Z 04005KT M01/M09 A3028 RMK A01 T10081087  RH  055%=      5-min Rain = 0
KSB1 240807Z 04004KT M01/M08 A3028 RMK A01 T10071084  RH  056%=      5-min Rain = 0
KSB1 240808Z 03003KT M01/M08 A3028 RMK A01 T10051083  RH  056%=      5-min Rain = 0
KSB1 240809Z 02003KT M01/M08 A3028 RMK A01 T10051084  RH  055%=      5-min Rain = 0
KSB1 240810Z 02003KT M01/M09 A3028 RMK A01 T10071086  RH  055%=      5-min Rain = 0
KSB1 240811Z 01002KT M01/M09 A3028 RMK A01 T10081087  RH  055%=      5-min Rain = 0
KSB1 240812Z 01003KT M01/M09 A3028 RMK A01 T10081087  RH  055%=      5-min Rain = 0
KSB1 240813Z 01003KT M01/M09 A3028 RMK A01 T10081086  RH  056%=      5-min Rain = 0
KSB1 240814Z 00003KT M01/M09 A3028 RMK A01 T10081086  RH  056%=      5-min Rain = 0
KSB1 240815Z 00002KT M01/M09 A3028 RMK A01 T10081085  RH  056%=      5-min Rain = 0
KSB1 240816Z 01002KT M01/M09 A3028 RMK A01 T10081085  RH  056%=      5-min Rain = 0
KSB1 240817Z 01003KT M01/M09 A3028 RMK A01 T10071085  RH  056%=      5-min Rain = 0
KSB1 240818Z 01004KT M01/M08 A3028 RMK A01 T10061084  RH  056%=      5-min Rain = 0
KSB1 240819Z 01003KT M01/M08 A3028 RMK A01 T10051083  RH  055%=      5-min Rain = 0
KSB1 240820Z 01003KT M00/M08 A3028 RMK A01 T10041083  RH  055%=      5-min Rain = 0
KSB1 240821Z 00004KT M00/M08 A3028 RMK A01 T10041083  RH  055%=      5-min Rain = 0
KSB1 240822Z 36005KT M00/M08 A3028 RMK A01 T10041083  RH  055%=      5-min Rain = 0
KSB1 240823Z 36006KT M00/M08 A3028 RMK A01 T10031083  RH  055%=      5-min Rain = 0
KSB1 240824Z 35006KT M00/M08 A3028 RMK A01 T10031084  RH  055%=      5-min Rain = 0
KSB1 240825Z 35007KT M00/M08 A3028 RMK A01 T10031084  RH  054%=      5-min Rain = 0
KSB1 240826Z 34007KT M00/M08 A3028 RMK A01 T10021083  RH  054%=      5-min Rain = 0
KSB1 240827Z 34007KT M00/M08 A3028 RMK A01 T10011082  RH  054%=      5-min Rain = 0
KSB1 240828Z 34007KT M00/M08 A3028 RMK A01 T10011081  RH  054%=      5-min Rain = 0
KSB1 240829Z 33007KT 00/08 A3028 RMK A01 T00000-81  RH  054%=      5-min Rain = 0
KSB1 240830Z 33007KT 00/M08 A3028 RMK A01 T00011080  RH  054%=      5-min Rain = 0
KSB1 240831Z 33005KT 00/M08 A3028 RMK A01 T00031079  RH  054%=      5-min Rain = 0
KSB1 240832Z 32004KT 01/M08 A3028 RMK A01 T00051079  RH  054%=      5-min Rain = 0
KSB1 240833Z 32003KT 01/M08 A3028 RMK A01 T00061079  RH  053%=      5-min Rain = 0
KSB1 240834Z 29001KT 01/M08 A3028 RMK A01 T00071079  RH  053%=      5-min Rain = 0
KSB1 240835Z 31003KT 01/M08 A3028 RMK A01 T00071079  RH  052%=      5-min Rain = 0
KSB1 240836Z 28002KT 01/M08 A3028 RMK A01 T00071079  RH  052%=      5-min Rain = 0
KSB1 240837Z 27004KT 01/M08 A3028 RMK A01 T00081079  RH  052%=      5-min Rain = 0
KSB1 240838Z 28005KT 01/M08 A3028 RMK A01 T00091078  RH  052%=      5-min Rain = 0
KSB1 240839Z 28006KT 01/M08 A3028 RMK A01 T00111076  RH  052%=      5-min Rain = 0
KSB1 240840Z 28007KT 02/M07 A3027 RMK A01 T00161073  RH  051%=      5-min Rain = 0
KSB1 240841Z 29007KT 02/M07 A3027 RMK A01 T00201073  RH  050%=      5-min Rain = 0
KSB1 240842Z 29007KT 02/M07 A3027 RMK A01 T00231074  RH  049%=      5-min Rain = 0
KSB1 240843Z 29008KT 02/M07 A3027 RMK A01 T00241074  RH  048%=      5-min Rain = 0
KSB1 240844Z 29006KT 03/M07 A3027 RMK A01 T00261074  RH  048%=      5-min Rain = 0
KSB1 240845Z 29007KT 03/M07 A3027 RMK A01 T00261074  RH  047%=      5-min Rain = 0
KSB1 240846Z 29007KT 03/M07 A3027 RMK A01 T00281074  RH  047%=      5-min Rain = 0
KSB1 240847Z 29006KT 03/M07 A3027 RMK A01 T00301073  RH  047%=      5-min Rain = 0
KSB1 240848Z 29007KT 03/M07 A3027 RMK A01 T00311073  RH  046%=      5-min Rain = 0
KSB1 240849Z 28005KT 03/M07 A3027 RMK A01 T00331073  RH  046%=      5-min Rain = 0
KSB1 240850Z 29006KT 03/M07 A3027 RMK A01 T00331073  RH  045%=      5-min Rain = 0
KSB1 240851Z 30004KT 03/M07 A3027 RMK A01 T00341074  RH  045%=      5-min Rain = 0
KSB1 240852Z 32002KT 03/M08 A3027 RMK A01 T00341075  RH  045%=      5-min Rain = 0
KSB1 240853Z 07002KT 03/M08 A3027 RMK A01 T00281082  RH  044%=      5-min Rain = 0
KSB1 240854Z 08002KT 02/M09 A3027 RMK A01 T00201086  RH  045%=      5-min Rain = 0
KSB1 240855Z 09003KT 01/M09 A3027 RMK A01 T00121088  RH  047%=      5-min Rain = 0
KSB1 240856Z 07003KT 01/M09 A3027 RMK A01 T00051090  RH  049%=      5-min Rain = 0
KSB1 240857Z 07004KT M00/M09 A3027 RMK A01 T10011091  RH  051%=      5-min Rain = 0
KSB1 240858Z 06003KT M01/M09 A3027 RMK A01 T10071093  RH  052%=      5-min Rain = 0
KSB1 240859Z 06004KT M01/M09 A3027 RMK A01 T10121094  RH  054%=      5-min Rain = 0
KSB1 240900Z 02002KT M01/M09 A3027 RMK A01 T10131089  RH  056%=      5-min Rain = 0
KSB1 240901Z 01001KT M01/M08 A3027 RMK A01 T10071083  RH  057%=      5-min Rain = 0
KSB1 240902Z 34001KT M00/M08 A3027 RMK A01 T10041083  RH  055%=      5-min Rain = 0
KSB1 240903Z 13000KT M00/M09 A3027 RMK A01 T10041086  RH  054%=      5-min Rain = 0
KSB1 240904Z 20001KT M01/M09 A3027 RMK A01 T10061090  RH  053%=      5-min Rain = 0
KSB1 240905Z 19000KT M01/M09 A3027 RMK A01 T10101092  RH  054%=      5-min Rain = 0
KSB1 240906Z 16001KT M01/M09 A3027 RMK A01 T10121090  RH  055%=      5-min Rain = 0
KSB1 240907Z 12001KT M01/M09 A3027 RMK A01 T10121089  RH  056%=      5-min Rain = 0
KSB1 240908Z 05001KT M01/M09 A3027 RMK A01 T10121088  RH  056%=      5-min Rain = 0
KSB1 240909Z 07002KT M01/M09 A3027 RMK A01 T10131088  RH  057%=      5-min Rain = 0
KSB1 240910Z 05001KT M01/M09 A3027 RMK A01 T10121086  RH  057%=      5-min Rain = 0
KSB1 240911Z 05003KT M01/M09 A3027 RMK A01 T10111086  RH  057%=      5-min Rain = 0
KSB1 240912Z 00004KT M01/M09 A3027 RMK A01 T10131088  RH  057%=      5-min Rain = 0
KSB1 240913Z 35003KT M01/M09 A3027 RMK A01 T10141087  RH  057%=      5-min Rain = 0
KSB1 240914Z 05001KT M01/M09 A3027 RMK A01 T10141087  RH  058%=      5-min Rain = 0
KSB1 240915Z 11004KT M02/M09 A3027 RMK A01 T10161089  RH  057%=      5-min Rain = 0
KSB1 240916Z 11005KT M02/M09 A3027 RMK A01 T10191092  RH  058%=      5-min Rain = 0
KSB1 240917Z 10005KT M02/M09 A3027 RMK A01 T10211092  RH  058%=      5-min Rain = 0
KSB1 240918Z 10004KT M02/M09 A3027 RMK A01 T10221091  RH  059%=      5-min Rain = 0
KSB1 240919Z 09003KT M02/M09 A3027 RMK A01 T10231091  RH  060%=      5-min Rain = 0
KSB1 240920Z 10004KT M02/M09 A3027 RMK A01 T10241092  RH  060%=      5-min Rain = 0
KSB1 240921Z 10004KT M03/M09 A3027 RMK A01 T10251092  RH  060%=      5-min Rain = 0
KSB1 240922Z 12004KT M03/M09 A3027 RMK A01 T10261092  RH  060%=      5-min Rain = 0
KSB1 240923Z 12004KT M03/M09 A3027 RMK A01 T10271093  RH  061%=      5-min Rain = 0
KSB1 240924Z 11004KT M03/M09 A3027 RMK A01 T10281094  RH  061%=      5-min Rain = 0
KSB1 240925Z 11004KT M03/M09 A3027 RMK A01 T10291093  RH  061%=      5-min Rain = 0
KSB1 240926Z 12003KT M03/M09 A3027 RMK A01 T10291092  RH  062%=      5-min Rain = 0
KSB1 240927Z 10002KT M03/M09 A3027 RMK A01 T10291092  RH  062%=      5-min Rain = 0
KSB1 240928Z 08002KT M03/M09 A3027 RMK A01 T10291092  RH  062%=      5-min Rain = 0
KSB1 240929Z 12001KT M03/M09 A3027 RMK A01 T10281090  RH  063%=      5-min Rain = 0
KSB1 240930Z 14002KT M03/M09 A3027 RMK A01 T10271089  RH  063%=      5-min Rain = 0
KSB1 240931Z 14002KT M03/M09 A3027 RMK A01 T10261089  RH  062%=      5-min Rain = 0
KSB1 240932Z 12002KT M03/M09 A3027 RMK A01 T10261090  RH  062%=      5-min Rain = 0
KSB1 240933Z 07002KT M03/M09 A3027 RMK A01 T10261090  RH  062%=      5-min Rain = 0
KSB1 240934Z 09001KT M03/M09 A3027 RMK A01 T10261089  RH  062%=      5-min Rain = 0
KSB1 240935Z 00000KT M03/M09 A3027 RMK A01 T10251087  RH  062%=      5-min Rain = 0
KSB1 240936Z 03000KT M02/M08 A3027 RMK A01 T10191082  RH  062%=      5-min Rain = 0
KSB1 240937Z 01000KT M02/M08 A3027 RMK A01 T10161083  RH  060%=      5-min Rain = 0
KSB1 240938Z 24001KT M01/M08 A3027 RMK A01 T10131082  RH  059%=      5-min Rain = 0
KSB1 240939Z 24000KT M01/M08 A3027 RMK A01 T10111082  RH  059%=      5-min Rain = 0
KSB1 240940Z 08000KT M01/M08 A3027 RMK A01 T10081079  RH  059%=      5-min Rain = 0
KSB1 240941Z 09002KT M00/M08 A3027 RMK A01 T10041078  RH  057%=      5-min Rain = 0
KSB1 240942Z 12002KT M00/M08 A3027 RMK A01 T10021081  RH  056%=      5-min Rain = 0
KSB1 240943Z 10001KT M00/M08 A3027 RMK A01 T10031081  RH  055%=      5-min Rain = 0
KSB1 240944Z 07000KT M00/M08 A3027 RMK A01 T10021081  RH  055%=      5-min Rain = 0
KSB1 240945Z 00000KT M00/M08 A3027 RMK A01 T10011080  RH  055%=      5-min Rain = 0
KSB1 240946Z 09001KT 00/M08 A3027 RMK A01 T00021079  RH  055%=      5-min Rain = 0
KSB1 240947Z 05002KT 00/M08 A3027 RMK A01 T00031081  RH  054%=      5-min Rain = 0
KSB1 240948Z 04003KT 00/M08 A3027 RMK A01 T00031082  RH  053%=      5-min Rain = 0
KSB1 240949Z 01003KT 00/08 A3027 RMK A01 T00000-84  RH  053%=      5-min Rain = 0
KSB1 240950Z 01003KT M00/M09 A3027 RMK A01 T10041085  RH  054%=      5-min Rain = 0
KSB1 240951Z 01004KT M01/M09 A3027 RMK A01 T10061085  RH  055%=      5-min Rain = 0
KSB1 240952Z 02004KT M01/M08 A3027 RMK A01 T10071084  RH  056%=      5-min Rain = 0
KSB1 240953Z 03004KT M01/M08 A3027 RMK A01 T10081084  RH  056%=      5-min Rain = 0
KSB1 240954Z 04004KT M01/M08 A3027 RMK A01 T10091084  RH  057%=      5-min Rain = 0
KSB1 240955Z 03003KT M01/M08 A3027 RMK A01 T10091084  RH  057%=      5-min Rain = 0
KSB1 240956Z 04002KT M01/M09 A3027 RMK A01 T10111085  RH  057%=      5-min Rain = 0
KSB1 240957Z 06002KT M01/M09 A3027 RMK A01 T10111085  RH  057%=      5-min Rain = 0
KSB1 240958Z 06002KT M01/M09 A3027 RMK A01 T10141088  RH  057%=      5-min Rain = 0
KSB1 240959Z 05002KT M02/M09 A3027 RMK A01 T10161089  RH  058%=      5-min Rain = 0
KSB1 241000Z 05002KT M02/M09 A3027 RMK A01 T10171087  RH  059%=      5-min Rain = 0
KSB1 241001Z 05003KT M02/M09 A3027 RMK A01 T10171085  RH  060%=      5-min Rain = 0
KSB1 241002Z 05003KT M02/M08 A3027 RMK A01 T10151084  RH  059%=      5-min Rain = 0
KSB1 241003Z 05003KT M01/M09 A3027 RMK A01 T10141085  RH  059%=      5-min Rain = 0
KSB1 241004Z 06002KT M01/M09 A3027 RMK A01 T10141085  RH  059%=      5-min Rain = 0
KSB1 241005Z 07002KT M01/M09 A3027 RMK A01 T10141085  RH  059%=      5-min Rain = 0
KSB1 241006Z 07002KT M01/M09 A3027 RMK A01 T10141085  RH  058%=      5-min Rain = 0
KSB1 241007Z 06002KT M01/M09 A3027 RMK A01 T10141085  RH  058%=      5-min Rain = 0
KSB1 241008Z 06002KT M01/M09 A3027 RMK A01 T10141085  RH  058%=      5-min Rain = 0
KSB1 241009Z 07002KT M01/M09 A3027 RMK A01 T10141085  RH  058%=      5-min Rain = 0
KSB1 241010Z 07002KT M01/M09 A3027 RMK A01 T10141085  RH  059%=      5-min Rain = 0
KSB1 241011Z 08003KT M01/M09 A3027 RMK A01 T10141085  RH  058%=      5-min Rain = 0
KSB1 241012Z 08002KT M01/M09 A3027 RMK A01 T10131085  RH  058%=      5-min Rain = 0
KSB1 241013Z 07001KT M01/M09 A3027 RMK A01 T10131086  RH  058%=      5-min Rain = 0
KSB1 241014Z 08000KT M01/M09 A3026 RMK A01 T10121086  RH  057%=      5-min Rain = 0
KSB1 241015Z 03002KT M01/M09 A3026 RMK A01 T10121088  RH  056%=      5-min Rain = 0
KSB1 241016Z 03002KT M02/M09 A3026 RMK A01 T10161090  RH  057%=      5-min Rain = 0
KSB1 241017Z 03003KT M02/M09 A3026 RMK A01 T10151087  RH  058%=      5-min Rain = 0
KSB1 241018Z 02002KT M01/M09 A3027 RMK A01 T10131086  RH  058%=      5-min Rain = 0
KSB1 241019Z 03002KT M01/M09 A3027 RMK A01 T10121086  RH  057%=      5-min Rain = 0
KSB1 241020Z 02001KT M01/M09 A3027 RMK A01 T10111087  RH  057%=      5-min Rain = 0
KSB1 241021Z 04000KT M01/M09 A3027 RMK A01 T10111087  RH  056%=      5-min Rain = 0
KSB1 241022Z 00000KT M02/M09 A3027 RMK A01 T10151092  RH  056%=      5-min Rain = 0
KSB1 241023Z 03000KT M02/M09 A3027 RMK A01 T10181092  RH  057%=      5-min Rain = 0
KSB1 241024Z 02001KT M02/M09 A3027 RMK A01 T10171089  RH  058%=      5-min Rain = 0
KSB1 241025Z 00002KT M02/M09 A3027 RMK A01 T10171089  RH  058%=      5-min Rain = 0
KSB1 241026Z 00002KT M02/M09 A3027 RMK A01 T10161088  RH  058%=      5-min Rain = 0
KSB1 241027Z 01002KT M01/M09 A3027 RMK A01 T10141087  RH  058%=      5-min Rain = 0
KSB1 241028Z 36001KT M01/M09 A3027 RMK A01 T10131086  RH  057%=      5-min Rain = 0
KSB1 241029Z 36000KT M01/M09 A3027 RMK A01 T10121087  RH  057%=      5-min Rain = 0
KSB1 241030Z 00000KT M01/M09 A3027 RMK A01 T10131088  RH  056%=      5-min Rain = 0
KSB1 241031Z 00000KT M02/M09 A3027 RMK A01 T10151089  RH  057%=      5-min Rain = 0
KSB1 241032Z 06001KT M02/M09 A3027 RMK A01 T10151088  RH  058%=      5-min Rain = 0
KSB1 241033Z 03002KT M02/M09 A3027 RMK A01 T10151087  RH  058%=      5-min Rain = 0
KSB1 241034Z 03002KT M01/M09 A3027 RMK A01 T10141087  RH  058%=      5-min Rain = 0
KSB1 241035Z 03001KT M01/M09 A3027 RMK A01 T10131087  RH  057%=      5-min Rain = 0
KSB1 241036Z 01001KT M01/M09 A3027 RMK A01 T10131088  RH  057%=      5-min Rain = 0
KSB1 241037Z 35002KT M01/M09 A3027 RMK A01 T10121088  RH  057%=      5-min Rain = 0
KSB1 241038Z 36002KT M01/M09 A3027 RMK A01 T10121087  RH  057%=      5-min Rain = 0
KSB1 241039Z 05001KT M01/M09 A3027 RMK A01 T10121087  RH  057%=      5-min Rain = 0
KSB1 241040Z 10001KT M01/M09 A3027 RMK A01 T10121086  RH  057%=      5-min Rain = 0
KSB1 241041Z 07001KT M01/M09 A3027 RMK A01 T10111086  RH  057%=      5-min Rain = 0
KSB1 241042Z 01001KT M01/M09 A3027 RMK A01 T10101086  RH  057%=      5-min Rain = 0
KSB1 241043Z 03001KT M01/M09 A3027 RMK A01 T10101086  RH  056%=      5-min Rain = 0
KSB1 241044Z 01001KT M01/M09 A3027 RMK A01 T10081085  RH  056%=      5-min Rain = 0
KSB1 241045Z 02001KT M01/M09 A3027 RMK A01 T10081085  RH  056%=      5-min Rain = 0
KSB1 241046Z 01001KT M01/M09 A3027 RMK A01 T10071085  RH  055%=      5-min Rain = 0
KSB1 241047Z 01001KT M01/M09 A3026 RMK A01 T10061085  RH  055%=      5-min Rain = 0
KSB1 241048Z 01001KT M01/M09 A3026 RMK A01 T10051085  RH  055%=      5-min Rain = 0
KSB1 241049Z 01001KT M00/M09 A3027 RMK A01 T10041085  RH  054%=      5-min Rain = 0
KSB1 241050Z 06001KT M00/M09 A3027 RMK A01 T10031085  RH  054%=      5-min Rain = 0
KSB1 241051Z 07000KT M00/M09 A3027 RMK A01 T10031085  RH  054%=      5-min Rain = 0
KSB1 241052Z 00000KT M00/M09 A3027 RMK A01 T10021085  RH  054%=      5-min Rain = 0
KSB1 241053Z 09000KT M00/M09 A3027 RMK A01 T10011085  RH  053%=      5-min Rain = 0
KSB1 241054Z 00000KT M00/M08 A3027 RMK A01 T10011084  RH  053%=      5-min Rain = 0
KSB1 241055Z 00000KT 00/08 A3027 RMK A01 T00-00-84  RH  053%=      5-min Rain = 0
KSB1 241056Z 00001KT 00/M08 A3026 RMK A01 T00011084  RH  053%=      5-min Rain = 0
KSB1 241057Z 03001KT 00/M08 A3026 RMK A01 T00021084  RH  053%=      5-min Rain = 0
KSB1 241058Z 02002KT 00/M08 A3027 RMK A01 T00031084  RH  052%=      5-min Rain = 0
KSB1 241059Z 02003KT 00/M08 A3027 RMK A01 T00031084  RH  052%=      5-min Rain = 0
KSB1 241100Z 01003KT 00/M08 A3027 RMK A01 T00031084  RH  052%=      5-min Rain = 0
KSB1 241101Z 00003KT 00/M08 A3027 RMK A01 T00021084  RH  052%=      5-min Rain = 0
KSB1 241102Z 36003KT 00/09 A3027 RMK A01 T00-00-85  RH  053%=      5-min Rain = 0
KSB1 241103Z 35004KT M00/M09 A3026 RMK A01 T10031086  RH  054%=      5-min Rain = 0
KSB1 241104Z 35004KT M01/M09 A3026 RMK A01 T10071087  RH  055%=      5-min Rain = 0
KSB1 241105Z 34004KT M01/M09 A3026 RMK A01 T10101087  RH  056%=      5-min Rain = 0
KSB1 241106Z 34004KT M01/M09 A3026 RMK A01 T10121087  RH  057%=      5-min Rain = 0
KSB1 241107Z 34003KT M01/M09 A3026 RMK A01 T10131086  RH  057%=      5-min Rain = 0
KSB1 241108Z 34003KT M01/M09 A3027 RMK A01 T10131086  RH  058%=      5-min Rain = 0
KSB1 241109Z 34003KT M01/M09 A3027 RMK A01 T10131085  RH  058%=      5-min Rain = 0
KSB1 241110Z 35003KT M01/M09 A3027 RMK A01 T10131085  RH  058%=      5-min Rain = 0
KSB1 241111Z 35003KT M01/M09 A3027 RMK A01 T10131085  RH  058%=      5-min Rain = 0
KSB1 241112Z 35004KT M01/M08 A3026 RMK A01 T10121084  RH  058%=      5-min Rain = 0
KSB1 241113Z 34004KT M01/M08 A3026 RMK A01 T10111084  RH  058%=      5-min Rain = 0
KSB1 241114Z 34004KT M01/M08 A3026 RMK A01 T10111084  RH  057%=      5-min Rain = 0
KSB1 241115Z 34004KT M01/M08 A3026 RMK A01 T10091084  RH  057%=      5-min Rain = 0
KSB1 241116Z 34004KT M01/M08 A3026 RMK A01 T10071083  RH  056%=      5-min Rain = 0
KSB1 241117Z 35004KT M01/M08 A3026 RMK A01 T10051083  RH  056%=      5-min Rain = 0
KSB1 241118Z 35004KT M00/M08 A3026 RMK A01 T10031083  RH  055%=      5-min Rain = 0
KSB1 241119Z 35004KT M00/M08 A3026 RMK A01 T10021083  RH  055%=      5-min Rain = 0
KSB1 241120Z 35003KT M00/M08 A3026 RMK A01 T10011083  RH  054%=      5-min Rain = 0
KSB1 241121Z 35003KT 00/08 A3026 RMK A01 T00-00-82  RH  054%=      5-min Rain = 0
KSB1 241122Z 36003KT 00/M08 A3026 RMK A01 T00011082  RH  053%=      5-min Rain = 0
KSB1 241123Z 36004KT 00/M08 A3026 RMK A01 T00021082  RH  053%=      5-min Rain = 0
KSB1 241124Z 36004KT 00/M08 A3026 RMK A01 T00031082  RH  053%=      5-min Rain = 0
KSB1 241125Z 36004KT 00/M08 A3026 RMK A01 T00031082  RH  053%=      5-min Rain = 0
KSB1 241126Z 00003KT 00/M08 A3026 RMK A01 T00021082  RH  053%=      5-min Rain = 0
KSB1 241127Z 00003KT 00/M08 A3027 RMK A01 T00021082  RH  053%=      5-min Rain = 0
KSB1 241128Z 01003KT 00/M08 A3027 RMK A01 T00031082  RH  053%=      5-min Rain = 0
KSB1 241129Z 00002KT 00/M08 A3027 RMK A01 T00031082  RH  053%=      5-min Rain = 0
KSB1 241130Z 00003KT 00/M08 A3027 RMK A01 T00041082  RH  053%=      5-min Rain = 0
KSB1 241131Z 01002KT 00/M08 A3027 RMK A01 T00041082  RH  053%=      5-min Rain = 0
KSB1 241132Z 00003KT 00/M08 A3027 RMK A01 T00041082  RH  053%=      5-min Rain = 0
KSB1 241133Z 36003KT 00/M08 A3027 RMK A01 T00031082  RH  053%=      5-min Rain = 0
KSB1 241134Z 36003KT 00/M08 A3027 RMK A01 T00031082  RH  053%=      5-min Rain = 0
KSB1 241135Z 00003KT 00/M08 A3027 RMK A01 T00021082  RH  053%=      5-min Rain = 0
KSB1 241136Z 36003KT 00/M08 A3027 RMK A01 T00021082  RH  053%=      5-min Rain = 0
KSB1 241137Z 36003KT 00/M08 A3027 RMK A01 T00031082  RH  053%=      5-min Rain = 0
KSB1 241138Z 36003KT 01/M08 A3027 RMK A01 T00051081  RH  052%=      5-min Rain = 0
KSB1 241139Z 00003KT 01/M08 A3027 RMK A01 T00061082  RH  052%=      5-min Rain = 0
KSB1 241140Z 36002KT 01/M08 A3027 RMK A01 T00061082  RH  052%=      5-min Rain = 0
KSB1 241141Z 36002KT 01/M08 A3027 RMK A01 T00071082  RH  052%=      5-min Rain = 0
KSB1 241142Z 35002KT 01/M08 A3027 RMK A01 T00071082  RH  051%=      5-min Rain = 0
KSB1 241143Z 35002KT 01/M08 A3027 RMK A01 T00071082  RH  051%=      5-min Rain = 0
KSB1 241144Z 36003KT 01/M08 A3027 RMK A01 T00081082  RH  051%=      5-min Rain = 0
KSB1 241145Z 00002KT 01/M08 A3027 RMK A01 T00081082  RH  051%=      5-min Rain = 0
KSB1 241146Z 00002KT 01/M08 A3027 RMK A01 T00091082  RH  051%=      5-min Rain = 0
KSB1 241147Z 01002KT 01/M08 A3027 RMK A01 T00091082  RH  051%=      5-min Rain = 0
KSB1 241148Z 01002KT 01/M08 A3027 RMK A01 T00091082  RH  051%=      5-min Rain = 0
KSB1 241149Z 01002KT 01/M08 A3027 RMK A01 T00101081  RH  050%=      5-min Rain = 0
KSB1 241150Z 01003KT 01/M08 A3027 RMK A01 T00111081  RH  050%=      5-min Rain = 0
KSB1 241151Z 01003KT 01/M08 A3027 RMK A01 T00111081  RH  050%=      5-min Rain = 0
KSB1 241152Z 02003KT 01/M08 A3026 RMK A01 T00121082  RH  050%=      5-min Rain = 0
KSB1 241153Z 02002KT 01/M08 A3027 RMK A01 T00121081  RH  050%=      5-min Rain = 0
KSB1 241154Z 02002KT 01/M08 A3027 RMK A01 T00121081  RH  050%=      5-min Rain = 0
KSB1 241155Z 02002KT 01/M08 A3027 RMK A01 T00131081  RH  049%=      5-min Rain = 0
KSB1 241156Z 02002KT 01/M08 A3027 RMK A01 T00131081  RH  049%=      5-min Rain = 0
KSB1 241157Z 02002KT 01/M08 A3027 RMK A01 T00141081  RH  049%=      5-min Rain = 0
KSB1 241158Z 01003KT 01/M08 A3026 RMK A01 T00141081  RH  049%=      5-min Rain = 0
KSB1 241159Z 02002KT 02/M08 A3026 RMK A01 T00151081  RH  049%=      5-min Rain = 0
KSB1 241200Z 02002KT 02/M08 A3026 RMK A01 T00151081  RH  049%=      5-min Rain = 0
KSB1 241201Z 03001KT 02/M08 A3027 RMK A01 T00151081  RH  049%=      5-min Rain = 0
KSB1 241202Z 04000KT 02/M08 A3027 RMK A01 T00151081  RH  049%=      5-min Rain = 0
KSB1 241203Z 04001KT 02/M08 A3027 RMK A01 T00151081  RH  049%=      5-min Rain = 0
KSB1 241204Z 04001KT 01/M08 A3027 RMK A01 T00141081  RH  049%=      5-min Rain = 0
KSB1 241205Z 03002KT 01/M08 A3027 RMK A01 T00141081  RH  049%=      5-min Rain = 0
KSB1 241206Z 03002KT 01/M08 A3027 RMK A01 T00141082  RH  049%=      5-min Rain = 0
KSB1 241207Z 02001KT 01/M08 A3027 RMK A01 T00141081  RH  049%=      5-min Rain = 0
KSB1 241208Z 03001KT 02/M08 A3027 RMK A01 T00151081  RH  049%=      5-min Rain = 0
KSB1 241209Z 02001KT 02/M08 A3027 RMK A01 T00151081  RH  049%=      5-min Rain = 0
KSB1 241210Z 01001KT 02/M08 A3027 RMK A01 T00151081  RH  049%=      5-min Rain = 0
KSB1 241211Z 00001KT 01/M08 A3027 RMK A01 T00141081  RH  049%=      5-min Rain = 0
KSB1 241212Z 00002KT 01/M08 A3027 RMK A01 T00141082  RH  049%=      5-min Rain = 0
KSB1 241213Z 00002KT 01/M08 A3027 RMK A01 T00141082  RH  049%=      5-min Rain = 0
KSB1 241214Z 00002KT 01/M08 A3027 RMK A01 T00141082  RH  049%=      5-min Rain = 0
KSB1 241215Z 01001KT 01/M08 A3027 RMK A01 T00141082  RH  049%=      5-min Rain = 0
KSB1 241216Z 01001KT 01/M08 A3027 RMK A01 T00141081  RH  049%=      5-min Rain = 0
KSB1 241217Z 00000KT 01/M08 A3027 RMK A01 T00141081  RH  049%=      5-min Rain = 0
KSB1 241218Z 00000KT 01/M08 A3027 RMK A01 T00141081  RH  049%=      5-min Rain = 0
KSB1 241219Z 00000KT 01/M08 A3027 RMK A01 T00131083  RH  049%=      5-min Rain = 0
KSB1 241220Z 00000KT 01/M08 A3027 RMK A01 T00091084  RH  050%=      5-min Rain = 0
KSB1 241221Z 00000KT 01/M08 A3027 RMK A01 T00071084  RH  051%=      5-min Rain = 0
KSB1 241222Z 29001KT 00/M08 A3027 RMK A01 T00041084  RH  052%=      5-min Rain = 0
KSB1 241223Z 29000KT 00/M08 A3027 RMK A01 T00021084  RH  053%=      5-min Rain = 0
KSB1 241224Z 00000KT 00/08 A3027 RMK A01 T00000-83  RH  054%=      5-min Rain = 0
KSB1 241225Z 00000KT 00/08 A3027 RMK A01 T00-00-82  RH  054%=      5-min Rain = 0
KSB1 241226Z 26001KT 00/08 A3027 RMK A01 T00000-82  RH  054%=      5-min Rain = 0
KSB1 241227Z 26002KT 00/08 A3027 RMK A01 T00000-81  RH  054%=      5-min Rain = 0
KSB1 241228Z 27002KT 00/08 A3027 RMK A01 T00000-81  RH  054%=      5-min Rain = 0
KSB1 241229Z 27001KT 00/08 A3027 RMK A01 T00000-81  RH  054%=      5-min Rain = 0
KSB1 241230Z 27001KT 00/08 A3027 RMK A01 T00000-81  RH  054%=      5-min Rain = 0
KSB1 241231Z 25001KT 00/M08 A3027 RMK A01 T00011080  RH  054%=      5-min Rain = 0
KSB1 241232Z 25000KT 00/M08 A3027 RMK A01 T00021080  RH  054%=      5-min Rain = 0
KSB1 241233Z 26000KT 00/M08 A3027 RMK A01 T00031080  RH  054%=      5-min Rain = 0
KSB1 241234Z 29001KT 00/M08 A3027 RMK A01 T00041080  RH  053%=      5-min Rain = 0
KSB1 241235Z 30001KT 01/M08 A3027 RMK A01 T00051080  RH  053%=      5-min Rain = 0
KSB1 241236Z 29001KT 01/M08 A3027 RMK A01 T00051080  RH  053%=      5-min Rain = 0
KSB1 241237Z 28001KT 01/M08 A3027 RMK A01 T00051080  RH  053%=      5-min Rain = 0
KSB1 241238Z 25002KT 01/M08 A3027 RMK A01 T00071079  RH  052%=      5-min Rain = 0
KSB1 241239Z 24002KT 01/M08 A3027 RMK A01 T00081079  RH  052%=      5-min Rain = 0
KSB1 241240Z 24001KT 01/M08 A3027 RMK A01 T00081080  RH  052%=      5-min Rain = 0
KSB1 241241Z 24001KT 01/M08 A3027 RMK A01 T00081079  RH  052%=      5-min Rain = 0
KSB1 241242Z 25000KT 01/M08 A3027 RMK A01 T00091079  RH  052%=      5-min Rain = 0
KSB1 241243Z 00000KT 01/M08 A3027 RMK A01 T00091079  RH  052%=      5-min Rain = 0
KSB1 241244Z 27001KT 01/M08 A3027 RMK A01 T00101079  RH  051%=      5-min Rain = 0
KSB1 241245Z 27001KT 01/M08 A3027 RMK A01 T00101079  RH  051%=      5-min Rain = 0
KSB1 241246Z 26002KT 01/M08 A3027 RMK A01 T00111079  RH  051%=      5-min Rain = 0
KSB1 241247Z 26001KT 01/M08 A3027 RMK A01 T00111079  RH  051%=      5-min Rain = 0
KSB1 241248Z 26001KT 01/M08 A3027 RMK A01 T00111079  RH  051%=      5-min Rain = 0
KSB1 241249Z 27001KT 01/M08 A3027 RMK A01 T00111079  RH  051%=      5-min Rain = 0
KSB1 241250Z 27001KT 01/M08 A3027 RMK A01 T00111079  RH  051%=      5-min Rain = 0
KSB1 241251Z 27000KT 01/M08 A3027 RMK A01 T00121079  RH  051%=      5-min Rain = 0
KSB1 241252Z 00000KT 01/M08 A3027 RMK A01 T00121079  RH  051%=      5-min Rain = 0
KSB1 241253Z 00000KT 01/M08 A3027 RMK A01 T00121079  RH  051%=      5-min Rain = 0
KSB1 241254Z 27001KT 01/M08 A3027 RMK A01 T00121079  RH  051%=      5-min Rain = 0
KSB1 241255Z 27001KT 01/M08 A3027 RMK A01 T00131079  RH  051%=      5-min Rain = 0
KSB1 241256Z 27001KT 01/M08 A3027 RMK A01 T00131079  RH  051%=      5-min Rain = 0
KSB1 241257Z 27000KT 01/M08 A3027 RMK A01 T00131079  RH  051%=      5-min Rain = 0
KSB1 241258Z 00000KT 01/M08 A3027 RMK A01 T00121079  RH  050%=      5-min Rain = 0
KSB1 241259Z 02001KT 01/M08 A3027 RMK A01 T00101082  RH  050%=      5-min Rain = 0
KSB1 241300Z 01001KT 01/M08 A3027 RMK A01 T00071082  RH  051%=      5-min Rain = 0
KSB1 241301Z 00000KT 01/M08 A3027 RMK A01 T00051082  RH  052%=      5-min Rain = 0
KSB1 241302Z 00000KT 01/M08 A3027 RMK A01 T00051081  RH  052%=      5-min Rain = 0
KSB1 241303Z 00000KT 01/M08 A3027 RMK A01 T00051081  RH  052%=      5-min Rain = 0
KSB1 241304Z 00000KT 01/M08 A3027 RMK A01 T00061081  RH  052%=      5-min Rain = 0
KSB1 241305Z 00000KT 01/M08 A3027 RMK A01 T00061081  RH  052%=      5-min Rain = 0
KSB1 241306Z 00000KT 01/M08 A3027 RMK A01 T00061082  RH  052%=      5-min Rain = 0
KSB1 241307Z 15000KT 01/M08 A3028 RMK A01 T00071082  RH  052%=      5-min Rain = 0
KSB1 241308Z 17001KT 01/M08 A3028 RMK A01 T00071082  RH  052%=      5-min Rain = 0
KSB1 241309Z 20001KT 01/M08 A3028 RMK A01 T00061082  RH  052%=      5-min Rain = 0
KSB1 241310Z 24001KT 01/M08 A3027 RMK A01 T00061082  RH  052%=      5-min Rain = 0
KSB1 241311Z 25002KT 01/M08 A3027 RMK A01 T00061081  RH  052%=      5-min Rain = 0
KSB1 241312Z 25002KT 01/M08 A3028 RMK A01 T00071080  RH  052%=      5-min Rain = 0
KSB1 241313Z 25003KT 01/M08 A3028 RMK A01 T00071080  RH  052%=      5-min Rain = 0
KSB1 241314Z 25003KT 01/M08 A3028 RMK A01 T00071081  RH  052%=      5-min Rain = 0
KSB1 241315Z 27003KT 01/M08 A3028 RMK A01 T00071081  RH  052%=      5-min Rain = 0
KSB1 241316Z 28003KT 01/M08 A3027 RMK A01 T00081081  RH  051%=      5-min Rain = 0
KSB1 241317Z 28004KT 01/M08 A3027 RMK A01 T00081081  RH  051%=      5-min Rain = 0
KSB1 241318Z 28003KT 01/M08 A3028 RMK A01 T00091081  RH  051%=      5-min Rain = 0
KSB1 241319Z 27003KT 01/M08 A3028 RMK A01 T00101080  RH  051%=      5-min Rain = 0
KSB1 241320Z 26003KT 01/M08 A3028 RMK A01 T00121079  RH  051%=      5-min Rain = 0
KSB1 241321Z 27003KT 01/M08 A3028 RMK A01 T00131080  RH  050%=      5-min Rain = 0
KSB1 241322Z 28002KT 01/M08 A3028 RMK A01 T00141080  RH  050%=      5-min Rain = 0
KSB1 241323Z 28003KT 02/M08 A3027 RMK A01 T00151080  RH  049%=      5-min Rain = 0
KSB1 241324Z 28002KT 02/M08 A3027 RMK A01 T00151080  RH  049%=      5-min Rain = 0
KSB1 241325Z 27002KT 02/M08 A3028 RMK A01 T00171080  RH  049%=      5-min Rain = 0
KSB1 241326Z 27001KT 02/M08 A3028 RMK A01 T00171080  RH  048%=      5-min Rain = 0
KSB1 241327Z 27001KT 02/M08 A3028 RMK A01 T00181081  RH  048%=      5-min Rain = 0
KSB1 241328Z 29000KT 02/M08 A3028 RMK A01 T00181081  RH  048%=      5-min Rain = 0
KSB1 241329Z 35000KT 02/M08 A3028 RMK A01 T00151081  RH  049%=      5-min Rain = 0
KSB1 241330Z 00000KT 01/M08 A3028 RMK A01 T00131082  RH  049%=      5-min Rain = 0
KSB1 241331Z 04001KT 01/M08 A3028 RMK A01 T00101082  RH  050%=      5-min Rain = 0
KSB1 241332Z 05002KT 01/M08 A3028 RMK A01 T00081083  RH  051%=      5-min Rain = 0
KSB1 241333Z 05002KT 01/M08 A3028 RMK A01 T00051083  RH  051%=      5-min Rain = 0
KSB1 241334Z 05001KT 00/M08 A3028 RMK A01 T00041083  RH  052%=      5-min Rain = 0
KSB1 241335Z 06001KT 00/M08 A3028 RMK A01 T00021083  RH  053%=      5-min Rain = 0
KSB1 241336Z 06001KT 00/M08 A3028 RMK A01 T00021082  RH  053%=      5-min Rain = 0
KSB1 241337Z 05001KT 00/M08 A3028 RMK A01 T00011082  RH  054%=      5-min Rain = 0
KSB1 241338Z 04002KT 00/M08 A3028 RMK A01 T00011082  RH  054%=      5-min Rain = 0
KSB1 241339Z 04002KT 00/M08 A3028 RMK A01 T00011082  RH  053%=      5-min Rain = 0
KSB1 241340Z 04002KT 00/M08 A3028 RMK A01 T00021082  RH  053%=      5-min Rain = 0
KSB1 241341Z 03002KT 00/M08 A3028 RMK A01 T00021082  RH  053%=      5-min Rain = 0
KSB1 241342Z 02003KT 00/M08 A3028 RMK A01 T00021082  RH  053%=      5-min Rain = 0
KSB1 241343Z 02003KT 00/M08 A3028 RMK A01 T00021082  RH  053%=      5-min Rain = 0
KSB1 241344Z 02002KT 00/M08 A3028 RMK A01 T00021082  RH  053%=      5-min Rain = 0
KSB1 241345Z 03002KT 00/M08 A3028 RMK A01 T00031081  RH  053%=      5-min Rain = 0
KSB1 241346Z 02002KT 00/M08 A3028 RMK A01 T00041082  RH  053%=      5-min Rain = 0
KSB1 241347Z 01002KT 01/M08 A3028 RMK A01 T00061081  RH  052%=      5-min Rain = 0
KSB1 241348Z 02002KT 01/M08 A3028 RMK A01 T00071081  RH  052%=      5-min Rain = 0
KSB1 241349Z 02002KT 01/M08 A3028 RMK A01 T00081081  RH  051%=      5-min Rain = 0
KSB1 241350Z 03001KT 01/M08 A3028 RMK A01 T00091081  RH  051%=      5-min Rain = 0
KSB1 241351Z 03001KT 01/M08 A3028 RMK A01 T00101081  RH  051%=      5-min Rain = 0
KSB1 241352Z 03001KT 01/M08 A3028 RMK A01 T00101082  RH  050%=      5-min Rain = 0
KSB1 241353Z 03001KT 01/M08 A3028 RMK A01 T00101082  RH  050%=      5-min Rain = 0
KSB1 241354Z 03001KT 01/M08 A3028 RMK A01 T00121081  RH  050%=      5-min Rain = 0
KSB1 241355Z 03002KT 01/M08 A3028 RMK A01 T00121082  RH  050%=      5-min Rain = 0
KSB1 241356Z 03002KT 01/M08 A3028 RMK A01 T00131081  RH  050%=      5-min Rain = 0
KSB1 241357Z 03002KT 01/M08 A3028 RMK A01 T00131081  RH  050%=      5-min Rain = 0
KSB1 241358Z 02002KT 01/M08 A3028 RMK A01 T00141081  RH  049%=      5-min Rain = 0
KSB1 241359Z 01002KT 01/M08 A3028 RMK A01 T00141081  RH  049%=      5-min Rain = 0
KSB1 241400Z 00002KT 02/M08 A3028 RMK A01 T00151080  RH  049%=      5-min Rain = 0
KSB1 241401Z 00003KT 02/M08 A3028 RMK A01 T00151081  RH  049%=      5-min Rain = 0
KSB1 241402Z 00003KT 02/M08 A3028 RMK A01 T00161081  RH  049%=      5-min Rain = 0
KSB1 241403Z 00003KT 02/M08 A3028 RMK A01 T00181081  RH  048%=      5-min Rain = 0
KSB1 241404Z 00003KT 02/M08 A3028 RMK A01 T00191081  RH  047%=      5-min Rain = 0
KSB1 241405Z 01003KT 02/M08 A3028 RMK A01 T00211081  RH  047%=      5-min Rain = 0
KSB1 241406Z 01003KT 02/M08 A3028 RMK A01 T00221080  RH  047%=      5-min Rain = 0
KSB1 241407Z 02003KT 02/M08 A3028 RMK A01 T00221079  RH  047%=      5-min Rain = 0
KSB1 241408Z 02003KT 02/M08 A3028 RMK A01 T00221076  RH  048%=      5-min Rain = 0
KSB1 241409Z 01002KT 02/M08 A3028 RMK A01 T00211077  RH  048%=      5-min Rain = 0
KSB1 241410Z 00003KT 02/M08 A3028 RMK A01 T00211079  RH  048%=      5-min Rain = 0
KSB1 241411Z 36003KT 02/M08 A3028 RMK A01 T00211080  RH  047%=      5-min Rain = 0
KSB1 241412Z 34003KT 02/M08 A3028 RMK A01 T00221080  RH  047%=      5-min Rain = 0
KSB1 241413Z 34003KT 02/M08 A3028 RMK A01 T00231079  RH  047%=      5-min Rain = 0
KSB1 241414Z 34002KT 02/M08 A3029 RMK A01 T00241080  RH  046%=      5-min Rain = 0
KSB1 241415Z 34002KT 03/M08 A3029 RMK A01 T00261081  RH  045%=      5-min Rain = 0
KSB1 241416Z 35001KT 03/M08 A3029 RMK A01 T00271080  RH  045%=      5-min Rain = 0
KSB1 241417Z 00000KT 03/M08 A3029 RMK A01 T00291078  RH  045%=      5-min Rain = 0
KSB1 241418Z 16000KT 03/M08 A3029 RMK A01 T00311075  RH  046%=      5-min Rain = 0
KSB1 241419Z 14000KT 03/M08 A3029 RMK A01 T00281078  RH  045%=      5-min Rain = 0
KSB1 241420Z 00000KT 02/M08 A3029 RMK A01 T00241083  RH  045%=      5-min Rain = 0
KSB1 241421Z 00000KT 02/M09 A3029 RMK A01 T00191086  RH  046%=      5-min Rain = 0
KSB1 241422Z 08000KT 02/M09 A3029 RMK A01 T00151086  RH  047%=      5-min Rain = 0
KSB1 241423Z 09001KT 01/M09 A3029 RMK A01 T00141085  RH  048%=      5-min Rain = 0
KSB1 241424Z 07001KT 02/M08 A3029 RMK A01 T00151083  RH  048%=      5-min Rain = 0
KSB1 241425Z 07001KT 02/M08 A3029 RMK A01 T00161081  RH  048%=      5-min Rain = 0
KSB1 241426Z 04001KT 02/M08 A3029 RMK A01 T00181080  RH  048%=      5-min Rain = 0
KSB1 241427Z 01001KT 02/M08 A3029 RMK A01 T00201080  RH  048%=      5-min Rain = 0
KSB1 241428Z 00002KT 02/M08 A3029 RMK A01 T00211078  RH  048%=      5-min Rain = 0
KSB1 241429Z 00002KT 02/M08 A3029 RMK A01 T00211076  RH  048%=      5-min Rain = 0
KSB1 241430Z 00002KT 02/M08 A3029 RMK A01 T00211075  RH  049%=      5-min Rain = 0
KSB1 241431Z 36001KT 02/M07 A3029 RMK A01 T00211074  RH  049%=      5-min Rain = 0
KSB1 241432Z 01001KT 02/M07 A3029 RMK A01 T00201074  RH  050%=      5-min Rain = 0
KSB1 241433Z 03001KT 02/M07 A3029 RMK A01 T00201074  RH  050%=      5-min Rain = 0
KSB1 241434Z 06001KT 02/M08 A3029 RMK A01 T00201075  RH  050%=      5-min Rain = 0
KSB1 241435Z 08001KT 02/M08 A3029 RMK A01 T00191076  RH  049%=      5-min Rain = 0
KSB1 241436Z 07001KT 02/M08 A3029 RMK A01 T00191075  RH  050%=      5-min Rain = 0
KSB1 241437Z 06001KT 02/M08 A3029 RMK A01 T00181076  RH  050%=      5-min Rain = 0
KSB1 241438Z 07002KT 02/M08 A3029 RMK A01 T00171076  RH  050%=      5-min Rain = 0
KSB1 241439Z 07002KT 02/M08 A3029 RMK A01 T00161077  RH  050%=      5-min Rain = 0
KSB1 241440Z 06002KT 02/M08 A3029 RMK A01 T00161076  RH  050%=      5-min Rain = 0
KSB1 241441Z 07002KT 02/M08 A303 RMK A01 T00161078  RH  050%=      5-min Rain = 0
KSB1 241442Z 08002KT 02/M08 A303 RMK A01 T00161079  RH  050%=      5-min Rain = 0
KSB1 241443Z 08002KT 02/M08 A303 RMK A01 T00161077  RH  050%=      5-min Rain = 0
KSB1 241444Z 07003KT 02/M08 A303 RMK A01 T00161077  RH  050%=      5-min Rain = 0
KSB1 241445Z 06003KT 02/M08 A303 RMK A01 T00151078  RH  050%=      5-min Rain = 0
KSB1 241446Z 07003KT 02/M08 A303 RMK A01 T00151081  RH  049%=      5-min Rain = 0
KSB1 241447Z 07002KT 02/M08 A303 RMK A01 T00151082  RH  048%=      5-min Rain = 0
KSB1 241448Z 08002KT 01/M08 A303 RMK A01 T00141083  RH  049%=      5-min Rain = 0
KSB1 241449Z 09003KT 01/M08 A303 RMK A01 T00141083  RH  049%=      5-min Rain = 0
KSB1 241450Z 09003KT 01/M08 A303 RMK A01 T00131083  RH  049%=      5-min Rain = 0
KSB1 241451Z 07003KT 01/M08 A303 RMK A01 T00131081  RH  050%=      5-min Rain = 0
KSB1 241452Z 05002KT 01/M08 A303 RMK A01 T00141081  RH  049%=      5-min Rain = 0
KSB1 241453Z 05002KT 01/M08 A303 RMK A01 T00141081  RH  049%=      5-min Rain = 0
KSB1 241454Z 05002KT 01/M08 A3031 RMK A01 T00141081  RH  049%=      5-min Rain = 0
KSB1 241455Z 06001KT 01/M08 A3031 RMK A01 T00141082  RH  049%=      5-min Rain = 0
KSB1 241456Z 06001KT 02/M08 A3031 RMK A01 T00151080  RH  049%=      5-min Rain = 0
KSB1 241457Z 06001KT 02/M08 A3031 RMK A01 T00171078  RH  049%=      5-min Rain = 0
KSB1 241458Z 04002KT 02/M08 A3031 RMK A01 T00191078  RH  048%=      5-min Rain = 0
KSB1 241459Z 03002KT 02/M08 A3031 RMK A01 T00201078  RH  048%=      5-min Rain = 0
KSB1 241500Z 03002KT 02/M08 A3031 RMK A01 T00221079  RH  047%=      5-min Rain = 0
KSB1 241501Z 04002KT 02/M08 A3031 RMK A01 T00231079  RH  047%=      5-min Rain = 0
KSB1 241502Z 03002KT 02/M08 A3031 RMK A01 T00231079  RH  047%=      5-min Rain = 0
KSB1 241503Z 02002KT 02/M08 A3031 RMK A01 T00241079  RH  046%=      5-min Rain = 0
KSB1 241504Z 03002KT 03/M08 A3031 RMK A01 T00251080  RH  046%=      5-min Rain = 0
KSB1 241505Z 03002KT 03/M08 A3031 RMK A01 T00251080  RH  046%=      5-min Rain = 0
KSB1 241506Z 03002KT 03/M08 A3031 RMK A01 T00271080  RH  045%=      5-min Rain = 0
KSB1 241507Z 03002KT 03/M08 A3031 RMK A01 T00281081  RH  045%=      5-min Rain = 0
KSB1 241508Z 04002KT 03/M08 A3031 RMK A01 T00281081  RH  044%=      5-min Rain = 0
KSB1 241509Z 03002KT 03/M08 A3031 RMK A01 T00291081  RH  044%=      5-min Rain = 0
KSB1 241510Z 03002KT 03/M08 A3031 RMK A01 T00301082  RH  044%=      5-min Rain = 0
KSB1 241511Z 01002KT 03/M08 A3031 RMK A01 T00311081  RH  044%=      5-min Rain = 0
KSB1 241512Z 01002KT 03/M08 A3031 RMK A01 T00331078  RH  044%=      5-min Rain = 0
KSB1 241513Z 36002KT 04/M08 A3031 RMK A01 T00351079  RH  043%=      5-min Rain = 0
KSB1 241514Z 01002KT 04/M08 A3031 RMK A01 T00351080  RH  043%=      5-min Rain = 0
KSB1 241515Z 03002KT 04/M08 A3031 RMK A01 T00351079  RH  043%=      5-min Rain = 0
KSB1 241516Z 03002KT 04/M08 A3031 RMK A01 T00361079  RH  043%=      5-min Rain = 0
KSB1 241517Z 01001KT 04/M08 A3031 RMK A01 T00371079  RH  042%=      5-min Rain = 0
KSB1 241518Z 01000KT 04/M08 A3031 RMK A01 T00381079  RH  042%=      5-min Rain = 0
KSB1 241519Z 02000KT 04/M08 A3031 RMK A01 T00391080  RH  042%=      5-min Rain = 0
KSB1 241520Z 04001KT 04/M08 A3031 RMK A01 T00411079  RH  041%=      5-min Rain = 0
KSB1 241521Z 06001KT 04/M08 A3031 RMK A01 T00421080  RH  041%=      5-min Rain = 0
KSB1 241522Z 07002KT 04/M08 A3031 RMK A01 T00431080  RH  041%=      5-min Rain = 0
KSB1 241523Z 07001KT 04/M08 A3032 RMK A01 T00441079  RH  040%=      5-min Rain = 0
KSB1 241524Z 08002KT 05/M08 A3032 RMK A01 T00471079  RH  040%=      5-min Rain = 0
KSB1 241525Z 12002KT 05/M08 A3032 RMK A01 T00471080  RH  039%=      5-min Rain = 0
KSB1 241526Z 12002KT 05/M08 A3032 RMK A01 T00471081  RH  039%=      5-min Rain = 0
KSB1 241527Z 10003KT 05/M08 A3032 RMK A01 T00481080  RH  039%=      5-min Rain = 0
KSB1 241528Z 09002KT 05/M08 A3032 RMK A01 T00481083  RH  038%=      5-min Rain = 0
KSB1 241529Z 09001KT 05/M08 A3031 RMK A01 T00491079  RH  039%=      5-min Rain = 0
KSB1 241530Z 12003KT 05/M08 A3031 RMK A01 T00511079  RH  038%=      5-min Rain = 0
KSB1 241531Z 11003KT 05/M08 A3031 RMK A01 T00531079  RH  038%=      5-min Rain = 0
KSB1 241532Z 10004KT 05/M08 A3031 RMK A01 T00541081  RH  037%=      5-min Rain = 0
KSB1 241533Z 12004KT 05/M08 A3031 RMK A01 T00521083  RH  037%=      5-min Rain = 0
KSB1 241534Z 12004KT 05/M08 A3032 RMK A01 T00511081  RH  038%=      5-min Rain = 0
KSB1 241535Z 11003KT 05/M08 A3032 RMK A01 T00511083  RH  037%=      5-min Rain = 0
KSB1 241536Z 12004KT 05/M08 A3032 RMK A01 T00521081  RH  038%=      5-min Rain = 0
KSB1 241537Z 11004KT 05/M08 A3031 RMK A01 T00521082  RH  037%=      5-min Rain = 0
KSB1 241538Z 10004KT 05/M08 A3031 RMK A01 T00511084  RH  037%=      5-min Rain = 0
KSB1 241539Z 12003KT 05/M08 A3031 RMK A01 T00511083  RH  037%=      5-min Rain = 0
KSB1 241540Z 12003KT 05/M08 A3032 RMK A01 T00511082  RH  038%=      5-min Rain = 0
KSB1 241541Z 13003KT 05/M08 A3032 RMK A01 T00541080  RH  037%=      5-min Rain = 0
KSB1 241542Z 11004KT 06/M08 A3032 RMK A01 T00551081  RH  037%=      5-min Rain = 0
KSB1 241543Z 11003KT 06/M08 A3032 RMK A01 T00571081  RH  036%=      5-min Rain = 0
KSB1 241544Z 14003KT 06/M08 A3031 RMK A01 T00581081  RH  036%=      5-min Rain = 0
KSB1 241545Z 14003KT 06/M08 A3032 RMK A01 T00591080  RH  036%=      5-min Rain = 0
KSB1 241546Z 13003KT 06/M08 A3032 RMK A01 T00601081  RH  036%=      5-min Rain = 0
KSB1 241547Z 14003KT 06/M08 A3032 RMK A01 T00601082  RH  035%=      5-min Rain = 0
KSB1 241548Z 11004KT 06/M08 A3032 RMK A01 T00611082  RH  035%=      5-min Rain = 0
KSB1 241549Z 11006KT 06/M08 A3032 RMK A01 T00611083  RH  035%=      5-min Rain = 0
KSB1 241550Z 11005KT 06/M08 A3031 RMK A01 T00591084  RH  035%=      5-min Rain = 0
KSB1 241551Z 11004KT 06/M08 A3031 RMK A01 T00581084  RH  035%=      5-min Rain = 0
KSB1 241552Z 13004KT 06/M09 A3031 RMK A01 T00571085  RH  035%=      5-min Rain = 0
KSB1 241553Z 14004KT 06/M08 A3031 RMK A01 T00581083  RH  036%=      5-min Rain = 0
KSB1 241554Z 14003KT 06/M08 A3032 RMK A01 T00611080  RH  036%=      5-min Rain = 0
KSB1 241555Z 11004KT 06/M08 A3032 RMK A01 T00641079  RH  035%=      5-min Rain = 0
KSB1 241556Z 11005KT 07/M08 A3032 RMK A01 T00651080  RH  035%=      5-min Rain = 0
KSB1 241557Z 11005KT 07/M08 A3032 RMK A01 T00651083  RH  034%=      5-min Rain = 0
KSB1 241558Z 12005KT 06/M09 A3032 RMK A01 T00621085  RH  034%=      5-min Rain = 0
KSB1 241559Z 13004KT 06/M08 A3032 RMK A01 T00621084  RH  034%=      5-min Rain = 0
KSB1 241600Z 13004KT 07/M08 A3032 RMK A01 T00651080  RH  035%=      5-min Rain = 0
KSB1 241601Z 12006KT 07/M08 A3032 RMK A01 T00671083  RH  034%=      5-min Rain = 0
KSB1 241602Z 13006KT 07/M09 A3032 RMK A01 T00651085  RH  033%=      5-min Rain = 0
KSB1 241603Z 13006KT 07/M08 A3032 RMK A01 T00651084  RH  033%=      5-min Rain = 0
KSB1 241604Z 12006KT 07/M08 A3032 RMK A01 T00661084  RH  033%=      5-min Rain = 0
KSB1 241605Z 13005KT 07/M08 A3031 RMK A01 T00671083  RH  033%=      5-min Rain = 0
KSB1 241606Z 13005KT 07/M08 A3031 RMK A01 T00671084  RH  033%=      5-min Rain = 0
KSB1 241607Z 13006KT 07/M09 A3031 RMK A01 T00671085  RH  033%=      5-min Rain = 0
KSB1 241608Z 14005KT 07/M09 A3031 RMK A01 T00671085  RH  033%=      5-min Rain = 0
KSB1 241609Z 14003KT 07/M08 A3031 RMK A01 T00681083  RH  033%=      5-min Rain = 0
KSB1 241610Z 11003KT 07/M08 A3031 RMK A01 T00701082  RH  033%=      5-min Rain = 0
KSB1 241611Z 13005KT 07/M09 A3031 RMK A01 T00701086  RH  032%=      5-min Rain = 0
KSB1 241612Z 13003KT 07/M09 A3031 RMK A01 T00681087  RH  032%=      5-min Rain = 0
KSB1 241613Z 14005KT 07/M09 A3031 RMK A01 T00681087  RH  032%=      5-min Rain = 0
KSB1 241614Z 14004KT 07/M09 A3031 RMK A01 T00691085  RH  032%=      5-min Rain = 0
KSB1 241615Z 14005KT 07/M09 A3031 RMK A01 T00711085  RH  032%=      5-min Rain = 0
KSB1 241616Z 13005KT 07/M09 A3031 RMK A01 T00711087  RH  032%=      5-min Rain = 0
KSB1 241617Z 14004KT 07/M09 A3031 RMK A01 T00691088  RH  032%=      5-min Rain = 0
KSB1 241618Z 13004KT 07/M09 A3031 RMK A01 T00691087  RH  032%=      5-min Rain = 0
KSB1 241619Z 13004KT 07/M09 A3031 RMK A01 T00701086  RH  032%=      5-min Rain = 0
KSB1 241620Z 12005KT 07/M09 A3031 RMK A01 T00721085  RH  032%=      5-min Rain = 0
KSB1 241621Z 14005KT 07/M08 A3031 RMK A01 T00731084  RH  032%=      5-min Rain = 0
KSB1 241622Z 12005KT 08/M08 A3031 RMK A01 T00751084  RH  031%=      5-min Rain = 0
KSB1 241623Z 12004KT 08/M08 A3031 RMK A01 T00761084  RH  031%=      5-min Rain = 0
KSB1 241624Z 12006KT 08/M09 A3031 RMK A01 T00761086  RH  031%=      5-min Rain = 0
KSB1 241625Z 13006KT 08/M09 A3031 RMK A01 T00761087  RH  030%=      5-min Rain = 0
KSB1 241626Z 12006KT 08/M09 A3031 RMK A01 T00771088  RH  030%=      5-min Rain = 0
KSB1 241627Z 13006KT 08/M09 A3031 RMK A01 T00781087  RH  030%=      5-min Rain = 0
KSB1 241628Z 12005KT 08/M09 A3031 RMK A01 T00781087  RH  030%=      5-min Rain = 0
KSB1 241629Z 13005KT 08/M09 A3031 RMK A01 T00771088  RH  030%=      5-min Rain = 0
KSB1 241630Z 14005KT 08/M09 A3031 RMK A01 T00781085  RH  030%=      5-min Rain = 0
KSB1 241631Z 14005KT 08/M09 A3031 RMK A01 T00791086  RH  030%=      5-min Rain = 0
KSB1 241632Z 14004KT 08/M09 A3031 RMK A01 T00791086  RH  030%=      5-min Rain = 0
KSB1 241633Z 13004KT 08/M09 A3031 RMK A01 T00801086  RH  030%=      5-min Rain = 0
KSB1 241634Z 11006KT 08/M09 A3031 RMK A01 T00811085  RH  030%=      5-min Rain = 0
KSB1 241635Z 12005KT 08/M09 A3031 RMK A01 T00821086  RH  029%=      5-min Rain = 0
KSB1 241636Z 11004KT 08/M09 A3031 RMK A01 T00811087  RH  029%=      5-min Rain = 0
KSB1 241637Z 13004KT 08/M09 A303 RMK A01 T00821086  RH  029%=      5-min Rain = 0
KSB1 241638Z 13006KT 08/M09 A303 RMK A01 T00831086  RH  029%=      5-min Rain = 0
KSB1 241639Z 15005KT 09/M09 A303 RMK A01 T00851088  RH  028%=      5-min Rain = 0
KSB1 241640Z 12005KT 09/M09 A303 RMK A01 T00861089  RH  028%=      5-min Rain = 0
KSB1 241641Z 13006KT 09/M09 A303 RMK A01 T00861090  RH  028%=      5-min Rain = 0
KSB1 241642Z 12007KT 09/M09 A303 RMK A01 T00861092  RH  027%=      5-min Rain = 0
KSB1 241643Z 11006KT 09/M09 A303 RMK A01 T00861092  RH  027%=      5-min Rain = 0
KSB1 241644Z 12006KT 09/M09 A303 RMK A01 T00861091  RH  028%=      5-min Rain = 0
KSB1 241645Z 12007KT 09/M09 A303 RMK A01 T00881090  RH  028%=      5-min Rain = 0
KSB1 241646Z 12004KT 09/M09 A303 RMK A01 T00881093  RH  027%=      5-min Rain = 0
KSB1 241647Z 14006KT 09/M09 A303 RMK A01 T00881094  RH  027%=      5-min Rain = 0
KSB1 241648Z 11007KT 09/M09 A303 RMK A01 T00871094  RH  027%=      5-min Rain = 0
KSB1 241649Z 13007KT 09/M10 A303 RMK A01 T00871095  RH  026%=      5-min Rain = 0
KSB1 241650Z 12008KT 09/M09 A303 RMK A01 T00891093  RH  027%=      5-min Rain = 0
KSB1 241651Z 12008KT 09/M09 A303 RMK A01 T00901094  RH  026%=      5-min Rain = 0
KSB1 241652Z 11007KT 09/M09 A303 RMK A01 T00901094  RH  026%=      5-min Rain = 0
KSB1 241653Z 12007KT 09/M09 A303 RMK A01 T00901094  RH  026%=      5-min Rain = 0
KSB1 241654Z 13008KT 09/M10 A303 RMK A01 T00901095  RH  026%=      5-min Rain = 0
KSB1 241655Z 13007KT 09/M10 A303 RMK A01 T00891096  RH  026%=      5-min Rain = 0
KSB1 241656Z 13007KT 09/M10 A303 RMK A01 T00881095  RH  026%=      5-min Rain = 0
KSB1 241657Z 13008KT 09/M09 A303 RMK A01 T00891094  RH  026%=      5-min Rain = 0
KSB1 241658Z 12008KT 09/M09 A303 RMK A01 T00901094  RH  026%=      5-min Rain = 0
KSB1 241659Z 11006KT 09/M10 A303 RMK A01 T00911095  RH  026%=      5-min Rain = 0
KSB1 241700Z 10008KT 09/M10 A3029 RMK A01 T00891096  RH  026%=      5-min Rain = 0
KSB1 241701Z 11007KT 09/M10 A303 RMK A01 T00901097  RH  026%=      5-min Rain = 0
KSB1 241702Z 12009KT 09/M10 A3029 RMK A01 T00891095  RH  026%=      5-min Rain = 0
KSB1 241703Z 14010KT 09/M10 A3029 RMK A01 T00911096  RH  026%=      5-min Rain = 0
KSB1 241704Z 14009KT 09/M10 A3029 RMK A01 T00931098  RH  025%=      5-min Rain = 0
KSB1 241705Z 12008KT 09/M10 A3029 RMK A01 T00931100  RH  025%=      5-min Rain = 0
KSB1 241706Z 11008KT 09/M10 A3029 RMK A01 T00931099  RH  025%=      5-min Rain = 0
KSB1 241707Z 12007KT 09/M10 A3029 RMK A01 T00931098  RH  025%=      5-min Rain = 0
KSB1 241708Z 14008KT 10/M10 A3029 RMK A01 T00951095  RH  025%=      5-min Rain = 0
KSB1 241709Z 13008KT 10/M09 A3029 RMK A01 T00971094  RH  025%=      5-min Rain = 0
KSB1 241710Z 12008KT 10/M09 A3029 RMK A01 T01001092  RH  025%=      5-min Rain = 0
KSB1 241711Z 12006KT 10/M10 A3029 RMK A01 T00971095  RH  025%=      5-min Rain = 0
KSB1 241712Z 13006KT 10/M10 A3029 RMK A01 T00951095  RH  025%=      5-min Rain = 0
KSB1 241713Z 13007KT 10/M09 A3029 RMK A01 T00981090  RH  026%=      5-min Rain = 0
KSB1 241714Z 13007KT 10/M09 A3029 RMK A01 T01011089  RH  025%=      5-min Rain = 0
KSB1 241715Z 12009KT 10/M09 A3029 RMK A01 T00991092  RH  025%=      5-min Rain = 0
KSB1 241716Z 13008KT 10/M09 A3029 RMK A01 T00991091  RH  025%=      5-min Rain = 0
KSB1 241717Z 12008KT 10/M09 A3029 RMK A01 T00981093  RH  025%=      5-min Rain = 0
KSB1 241718Z 14005KT 10/M09 A3029 RMK A01 T00971093  RH  025%=      5-min Rain = 0
KSB1 241719Z 14007KT 10/M09 A3029 RMK A01 T00971093  RH  025%=      5-min Rain = 0
KSB1 241720Z 13010KT 10/M10 A3029 RMK A01 T00981095  RH  025%=      5-min Rain = 0
KSB1 241721Z 13007KT 10/M10 A3029 RMK A01 T00991098  RH  024%=      5-min Rain = 0
KSB1 241722Z 14008KT 10/M10 A3029 RMK A01 T01001096  RH  024%=      5-min Rain = 0
KSB1 241723Z 14007KT 10/M10 A3029 RMK A01 T01021095  RH  024%=      5-min Rain = 0
KSB1 241724Z 14005KT 10/M10 A3029 RMK A01 T01011096  RH  024%=      5-min Rain = 0
KSB1 241725Z 13008KT 10/M10 A3029 RMK A01 T01021096  RH  024%=      5-min Rain = 0
KSB1 241726Z 13007KT 10/M10 A3029 RMK A01 T01021100  RH  023%=      5-min Rain = 0
KSB1 241727Z 13006KT 10/M10 A3028 RMK A01 T01021103  RH  023%=      5-min Rain = 0
KSB1 241728Z 13006KT 10/M10 A3028 RMK A01 T01021103  RH  023%=      5-min Rain = 0
KSB1 241729Z 14005KT 10/M10 A3029 RMK A01 T01031098  RH  023%=      5-min Rain = 0
KSB1 241730Z 13005KT 11/M10 A3028 RMK A01 T01061095  RH  023%=      5-min Rain = 0
KSB1 241731Z 14009KT 11/M10 A3028 RMK A01 T01101097  RH  022%=      5-min Rain = 0
KSB1 241732Z 14008KT 11/M10 A3029 RMK A01 T01091100  RH  022%=      5-min Rain = 0
KSB1 241733Z 16005KT 11/M10 A3029 RMK A01 T01081101  RH  022%=      5-min Rain = 0
KSB1 241734Z 14005KT 11/M10 A3029 RMK A01 T01061100  RH  022%=      5-min Rain = 0
KSB1 241735Z 12008KT 11/M10 A3028 RMK A01 T01081099  RH  022%=      5-min Rain = 0
KSB1 241736Z 12006KT 11/M10 A3028 RMK A01 T01061103  RH  022%=      5-min Rain = 0
KSB1 241737Z 12006KT 11/M10 A3028 RMK A01 T01061101  RH  022%=      5-min Rain = 0
KSB1 241738Z 13006KT 11/M10 A3028 RMK A01 T01051102  RH  022%=      5-min Rain = 0
KSB1 241739Z 11006KT 11/M10 A3028 RMK A01 T01051102  RH  022%=      5-min Rain = 0
KSB1 241740Z 11006KT 11/M10 A3028 RMK A01 T01061101  RH  022%=      5-min Rain = 0
KSB1 241741Z 13007KT 11/M10 A3028 RMK A01 T01061102  RH  022%=      5-min Rain = 0
KSB1 241742Z 15009KT 11/M10 A3028 RMK A01 T01101097  RH  022%=      5-min Rain = 0
KSB1 241743Z 14007KT 11/M10 A3028 RMK A01 T01111100  RH  022%=      5-min Rain = 0
KSB1 241744Z 16005KT 11/M10 A3028 RMK A01 T01131099  RH  022%=      5-min Rain = 0
KSB1 241745Z 16008KT 11/M10 A3028 RMK A01 T01131100  RH  021%=      5-min Rain = 0
KSB1 241746Z 15007KT 11/M10 A3028 RMK A01 T01121102  RH  021%=      5-min Rain = 0
KSB1 241747Z 17005KT 11/M10 A3028 RMK A01 T01111102  RH  021%=      5-min Rain = 0
KSB1 241748Z 16005KT 11/M10 A3028 RMK A01 T01111100  RH  022%=      5-min Rain = 0
KSB1 241749Z 15005KT 11/M10 A3028 RMK A01 T01131101  RH  021%=      5-min Rain = 0
KSB1 241750Z 13006KT 11/M10 A3028 RMK A01 T01131104  RH  021%=      5-min Rain = 0
KSB1 241751Z 14008KT 11/M11 A3028 RMK A01 T01141105  RH  020%=      5-min Rain = 0
KSB1 241752Z 13007KT 11/M11 A3028 RMK A01 T01141107  RH  020%=      5-min Rain = 0
KSB1 241753Z 13006KT 11/M11 A3028 RMK A01 T01141108  RH  020%=      5-min Rain = 0
KSB1 241754Z 17007KT 11/M11 A3028 RMK A01 T01141106  RH  020%=      5-min Rain = 0
KSB1 241755Z 15004KT 11/M11 A3028 RMK A01 T01141105  RH  020%=      5-min Rain = 0
KSB1 241756Z 14006KT 12/M10 A3028 RMK A01 T01171100  RH  021%=      5-min Rain = 0
KSB1 241757Z 15008KT 12/M10 A3028 RMK A01 T01221097  RH  021%=      5-min Rain = 0
KSB1 241758Z 15008KT 12/M10 A3028 RMK A01 T01241100  RH  020%=      5-min Rain = 0
KSB1 241759Z 16008KT 12/M10 A3028 RMK A01 T01221101  RH  020%=      5-min Rain = 0
KSB1 241800Z 14007KT 12/M10 A3028 RMK A01 T01211102  RH  020%=      5-min Rain = 0
KSB1 241801Z 15008KT 12/M10 A3028 RMK A01 T01201104  RH  020%=      5-min Rain = 0
KSB1 241802Z 14006KT 12/M10 A3028 RMK A01 T01201103  RH  020%=      5-min Rain = 0
KSB1 241803Z 16006KT 12/M11 A3028 RMK A01 T01181106  RH  020%=      5-min Rain = 0
KSB1 241804Z 17004KT 12/M11 A3028 RMK A01 T01151109  RH  020%=      5-min Rain = 0
KSB1 241805Z 15007KT 12/M11 A3028 RMK A01 T01151105  RH  020%=      5-min Rain = 0
KSB1 241806Z 13007KT 12/M10 A3027 RMK A01 T01181102  RH  020%=      5-min Rain = 0
KSB1 241807Z 12007KT 12/M10 A3027 RMK A01 T01221101  RH  020%=      5-min Rain = 0
KSB1 241808Z 14007G12KT 12/M10 A3027 RMK A01 T01231103  RH  020%=      5-min Rain = 0
KSB1 241809Z 15010KT 12/M10 A3027 RMK A01 T01231104  RH  019%=      5-min Rain = 0
KSB1 241810Z 16010KT 12/M10 A3027 RMK A01 T01241104  RH  019%=      5-min Rain = 0
KSB1 241811Z 17005KT 12/M11 A3027 RMK A01 T01231106  RH  019%=      5-min Rain = 0
KSB1 241812Z 14004KT 12/M10 A3027 RMK A01 T01231104  RH  019%=      5-min Rain = 0
KSB1 241813Z 14007KT 12/M10 A3027 RMK A01 T01241104  RH  019%=      5-min Rain = 0
KSB1 241814Z 15009KT 12/M11 A3027 RMK A01 T01231107  RH  019%=      5-min Rain = 0
KSB1 241815Z 17008KT 13/M11 A3027 RMK A01 T01251106  RH  019%=      5-min Rain = 0
KSB1 241816Z 17009KT 13/M11 A3027 RMK A01 T01271105  RH  019%=      5-min Rain = 0
KSB1 241817Z 17009KT 13/M11 A3027 RMK A01 T01271106  RH  019%=      5-min Rain = 0
KSB1 241818Z 17009KT 13/M11 A3027 RMK A01 T01251109  RH  018%=      5-min Rain = 0
KSB1 241819Z 18008KT 13/M11 A3027 RMK A01 T01261109  RH  018%=      5-min Rain = 0
KSB1 241820Z 18010KT 13/M11 A3026 RMK A01 T01281109  RH  018%=      5-min Rain = 0
KSB1 241821Z 18011KT 13/M11 A3026 RMK A01 T01271111  RH  018%=      5-min Rain = 0
KSB1 241822Z 17011KT 13/M11 A3026 RMK A01 T01251113  RH  018%=      5-min Rain = 0
KSB1 241823Z 16010KT 13/M11 A3026 RMK A01 T01251112  RH  018%=      5-min Rain = 0
KSB1 241824Z 15012KT 12/M11 A3026 RMK A01 T01241114  RH  018%=      5-min Rain = 0
KSB1 241825Z 16012KT 13/M11 A3026 RMK A01 T01261111  RH  018%=      5-min Rain = 0
KSB1 241826Z 17011KT 13/M12 A3026 RMK A01 T01251117  RH  017%=      5-min Rain = 0
KSB1 241827Z 17012KT 12/M12 A3026 RMK A01 T01241120  RH  017%=      5-min Rain = 0
KSB1 241828Z 17012KT 12/M12 A3026 RMK A01 T01241120  RH  017%=      5-min Rain = 0
KSB1 241829Z 16009KT 12/M12 A3026 RMK A01 T01221123  RH  017%=      5-min Rain = 0
KSB1 241830Z 17008KT 12/M12 A3026 RMK A01 T01201120  RH  018%=      5-min Rain = 0
KSB1 241831Z 18011KT 12/M12 A3026 RMK A01 T01231118  RH  017%=      5-min Rain = 0
KSB1 241832Z 17012KT 12/M12 A3026 RMK A01 T01241122  RH  017%=      5-min Rain = 0
KSB1 241833Z 17011KT 13/M12 A3026 RMK A01 T01251122  RH  017%=      5-min Rain = 0
KSB1 241834Z 17014KT 13/M12 A3026 RMK A01 T01261123  RH  016%=      5-min Rain = 0
KSB1 241835Z 17012KT 13/M13 A3026 RMK A01 T01261126  RH  016%=      5-min Rain = 0
KSB1 241836Z 15010G15KT 13/M13 A3026 RMK A01 T01261129  RH  016%=      5-min Rain = 0
KSB1 241837Z 17015KT 13/M13 A3025 RMK A01 T01301132  RH  015%=      5-min Rain = 0
KSB1 241838Z 17013KT 13/M13 A3025 RMK A01 T01311134  RH  015%=      5-min Rain = 0
KSB1 241839Z 17013KT 13/M14 A3025 RMK A01 T01291138  RH  014%=      5-min Rain = 0
KSB1 241840Z 17012KT 13/M14 A3025 RMK A01 T01271136  RH  015%=      5-min Rain = 0
KSB1 241841Z 18012KT 13/M14 A3025 RMK A01 T01271136  RH  015%=      5-min Rain = 0
KSB1 241842Z 18014KT 13/M13 A3025 RMK A01 T01261133  RH  015%=      5-min Rain = 0
KSB1 241843Z 17013KT 13/M13 A3025 RMK A01 T01271128  RH  016%=      5-min Rain = 0
KSB1 241844Z 16014KT 13/M13 A3025 RMK A01 T01271128  RH  016%=      5-min Rain = 0
KSB1 241845Z 17014KT 13/M13 A3025 RMK A01 T01261130  RH  015%=      5-min Rain = 0
KSB1 241846Z 16012KT 13/M13 A3025 RMK A01 T01261131  RH  015%=      5-min Rain = 0
KSB1 241847Z 16010KT 13/M13 A3025 RMK A01 T01261129  RH  016%=      5-min Rain = 0
KSB1 241848Z 15011KT 13/M12 A3025 RMK A01 T01261124  RH  016%=      5-min Rain = 0
KSB1 241849Z 17013KT 13/M12 A3025 RMK A01 T01271124  RH  016%=      5-min Rain = 0
KSB1 241850Z 18011KT 13/M13 A3025 RMK A01 T01281126  RH  016%=      5-min Rain = 0
KSB1 241851Z 17013KT 13/M13 A3025 RMK A01 T01291125  RH  016%=      5-min Rain = 0
KSB1 241852Z 16013KT 13/M13 A3025 RMK A01 T01291128  RH  015%=      5-min Rain = 0
KSB1 241853Z 17014KT 13/M13 A3024 RMK A01 T01291130  RH  015%=      5-min Rain = 0
KSB1 241854Z 16013KT 13/M13 A3024 RMK A01 T01291126  RH  016%=      5-min Rain = 0
KSB1 241855Z 14012KT 13/M13 A3024 RMK A01 T01301125  RH  016%=      5-min Rain = 0
KSB1 241856Z 14010KT 13/M13 A3024 RMK A01 T01301130  RH  015%=      5-min Rain = 0
KSB1 241857Z 17011KT 13/M13 A3024 RMK A01 T01311130  RH  015%=      5-min Rain = 0
KSB1 241858Z 18010KT 13/M13 A3024 RMK A01 T01321125  RH  015%=      5-min Rain = 0
KSB1 241859Z 16013KT 13/M12 A3024 RMK A01 T01331123  RH  016%=      5-min Rain = 0
KSB1 241900Z 16010KT 13/M13 A3024 RMK A01 T01331131  RH  015%=      5-min Rain = 0
KSB1 241901Z 17011KT 13/M13 A3024 RMK A01 T01301131  RH  015%=      5-min Rain = 0
KSB1 241902Z 17011KT 13/M13 A3024 RMK A01 T01291130  RH  015%=      5-min Rain = 0
KSB1 241903Z 16011KT 13/M13 A3024 RMK A01 T01281128  RH  016%=      5-min Rain = 0
KSB1 241904Z 18011KT 13/M13 A3024 RMK A01 T01281126  RH  016%=      5-min Rain = 0
KSB1 241905Z 17010KT 13/M13 A3023 RMK A01 T01281125  RH  016%=      5-min Rain = 0
KSB1 241906Z 17010G15KT 13/M13 A3023 RMK A01 T01301125  RH  016%=      5-min Rain = 0
KSB1 241907Z 17011KT 13/M13 A3023 RMK A01 T01321131  RH  015%=      5-min Rain = 0
KSB1 241908Z 18010KT 13/M13 A3023 RMK A01 T01331130  RH  015%=      5-min Rain = 0
KSB1 241909Z 16010KT 14/M13 A3023 RMK A01 T01371131  RH  014%=      5-min Rain = 0
KSB1 241910Z 16010KT 14/M13 A3023 RMK A01 T01361131  RH  014%=      5-min Rain = 0
KSB1 241911Z 16012KT 14/M13 A3023 RMK A01 T01351130  RH  015%=      5-min Rain = 0
KSB1 241912Z 17012G17KT 14/M13 A3023 RMK A01 T01351133  RH  014%=      5-min Rain = 0
KSB1 241913Z 16014KT 14/M14 A3023 RMK A01 T01351135  RH  014%=      5-min Rain = 0
KSB1 241914Z 17014KT 14/M13 A3023 RMK A01 T01361132  RH  014%=      5-min Rain = 0
KSB1 241915Z 16013KT 14/M13 A3023 RMK A01 T01361130  RH  015%=      5-min Rain = 0
KSB1 241916Z 16008KT 14/M13 A3023 RMK A01 T01351130  RH  015%=      5-min Rain = 0
KSB1 241917Z 15009KT 14/M13 A3023 RMK A01 T01361128  RH  015%=      5-min Rain = 0
KSB1 241918Z 16007KT 14/M14 A3023 RMK A01 T01361135  RH  014%=      5-min Rain = 0
KSB1 241919Z 17011KT 14/M14 A3023 RMK A01 T01381138  RH  013%=      5-min Rain = 0
KSB1 241920Z 17010KT 14/M14 A3023 RMK A01 T01401144  RH  013%=      5-min Rain = 0
KSB1 241921Z 14011G17KT 14/M14 A3023 RMK A01 T01401144  RH  013%=      5-min Rain = 0
KSB1 241922Z 13010KT 14/M14 A3022 RMK A01 T01411142  RH  013%=      5-min Rain = 0
KSB1 241923Z 13010KT 14/M15 A3022 RMK A01 T01401145  RH  012%=      5-min Rain = 0
KSB1 241924Z 14012KT 14/M15 A3022 RMK A01 T01401145  RH  013%=      5-min Rain = 0
KSB1 241925Z 17012KT 14/M14 A3022 RMK A01 T01421143  RH  013%=      5-min Rain = 0
KSB1 241926Z 17014KT 14/M14 A3022 RMK A01 T01441142  RH  012%=      5-min Rain = 0
KSB1 241927Z 17012KT 14/M14 A3022 RMK A01 T01431141  RH  013%=      5-min Rain = 0
KSB1 241928Z 18010KT 14/M14 A3022 RMK A01 T01421138  RH  013%=      5-min Rain = 0
KSB1 241929Z 18009KT 14/M14 A3022 RMK A01 T01431143  RH  012%=      5-min Rain = 0
KSB1 241930Z 18013KT 14/M15 A3021 RMK A01 T01431146  RH  012%=      5-min Rain = 0
KSB1 241931Z 17011KT 14/M15 A3021 RMK A01 T01431149  RH  012%=      5-min Rain = 0
KSB1 241932Z 17010KT 15/M14 A3021 RMK A01 T01451144  RH  012%=      5-min Rain = 0
KSB1 241933Z 17012KT 15/M14 A3021 RMK A01 T01471144  RH  012%=      5-min Rain = 0
KSB1 241934Z 16013KT 15/M15 A3021 RMK A01 T01451145  RH  012%=      5-min Rain = 0
KSB1 241935Z 18014KT 15/M15 A3021 RMK A01 T01451146  RH  012%=      5-min Rain = 0
KSB1 241936Z 17014KT 14/M15 A3021 RMK A01 T01441150  RH  012%=      5-min Rain = 0
KSB1 241937Z 17013KT 14/M15 A3021 RMK A01 T01431154  RH  011%=      5-min Rain = 0
KSB1 241938Z 16013KT 14/M15 A3021 RMK A01 T01431153  RH  011%=      5-min Rain = 0
KSB1 241939Z 18010KT 14/M15 A3021 RMK A01 T01441150  RH  012%=      5-min Rain = 0
KSB1 241940Z 18011KT 14/M15 A3021 RMK A01 T01431152  RH  012%=      5-min Rain = 0
KSB1 241941Z 18016KT 15/M16 A302 RMK A01 T01451164  RH  010%=      5-min Rain = 0
KSB1 241942Z 17015KT 15/M17 A302 RMK A01 T01471170  RH  010%=      5-min Rain = 0
KSB1 241943Z 15011KT 15/M17 A3021 RMK A01 T01471172  RH  010%=      5-min Rain = 0
KSB1 241944Z 17010KT 15/M17 A302 RMK A01 T01481171  RH  010%=      5-min Rain = 0
KSB1 241945Z 18011KT 15/M17 A302 RMK A01 T01491166  RH  010%=      5-min Rain = 0
KSB1 241946Z 18014KT 15/M16 A302 RMK A01 T01521159  RH  010%=      5-min Rain = 0
KSB1 241947Z 17014KT 15/M16 A302 RMK A01 T01501161  RH  010%=      5-min Rain = 0
KSB1 241948Z 17012KT 15/M17 A302 RMK A01 T01461168  RH  010%=      5-min Rain = 0
KSB1 241949Z 18014G20KT 15/M17 A302 RMK A01 T01471168  RH  010%=      5-min Rain = 0
KSB1 241950Z 17012KT 15/M17 A302 RMK A01 T01471172  RH  010%=      5-min Rain = 0
KSB1 241951Z 18015KT 15/M17 A302 RMK A01 T01461172  RH  010%=      5-min Rain = 0
KSB1 241952Z 17015KT 15/M17 A302 RMK A01 T01491170  RH  010%=      5-min Rain = 0
KSB1 241953Z 17015KT 15/M17 A302 RMK A01 T01501170  RH  010%=      5-min Rain = 0
KSB1 241954Z 16014KT 15/M17 A302 RMK A01 T01481172  RH  009%=      5-min Rain = 0
KSB1 241955Z 17011KT 15/M17 A302 RMK A01 T01461168  RH  010%=      5-min Rain = 0
KSB1 241956Z 17010KT 15/M16 A302 RMK A01 T01461164  RH  010%=      5-min Rain = 0
KSB1 241957Z 18015G20KT 15/M16 A3019 RMK A01 T01481161  RH  010%=      5-min Rain = 0
KSB1 241958Z 18014KT 15/M16 A3019 RMK A01 T01491158  RH  011%=      5-min Rain = 0
KSB1 241959Z 18011KT 15/M16 A3019 RMK A01 T01471164  RH  010%=      5-min Rain = 0
KSB1 242000Z 16013KT 15/M17 A3019 RMK A01 T01451168  RH  010%=      5-min Rain = 0
KSB1 242001Z 16014KT 15/M17 A3019 RMK A01 T01511174  RH  009%=      5-min Rain = 0
KSB1 242002Z 16012KT 16/M17 A3019 RMK A01 T01551168  RH  009%=      5-min Rain = 0
KSB1 242003Z 16011KT 16/M17 A3019 RMK A01 T01551165  RH  010%=      5-min Rain = 0
KSB1 242004Z 15011KT 15/M16 A3019 RMK A01 T01521162  RH  010%=      5-min Rain = 0
KSB1 242005Z 16015KT 16/M16 A3019 RMK A01 T01551161  RH  010%=      5-min Rain = 0
KSB1 242006Z 17013KT 16/M17 A3019 RMK A01 T01551165  RH  010%=      5-min Rain = 0
KSB1 242007Z 17015KT 16/M16 A3018 RMK A01 T01561164  RH  010%=      5-min Rain = 0
KSB1 242008Z 17015KT 16/M17 A3018 RMK A01 T01551170  RH  009%=      5-min Rain = 0
KSB1 242009Z 18013KT 15/M17 A3018 RMK A01 T01511174  RH  009%=      5-min Rain = 0
KSB1 242010Z 18014KT 15/M17 A3018 RMK A01 T01501173  RH  009%=      5-min Rain = 0
KSB1 242011Z 17015KT 15/M17 A3018 RMK A01 T01521172  RH  009%=      5-min Rain = 0
KSB1 242012Z 17015KT 15/M17 A3018 RMK A01 T01531171  RH  009%=      5-min Rain = 0
KSB1 242013Z 17014KT 15/M17 A3018 RMK A01 T01531171  RH  009%=      5-min Rain = 0
KSB1 242014Z 19012KT 15/M17 A3018 RMK A01 T01541167  RH  010%=      5-min Rain = 0
KSB1 242015Z 18013KT 16/M17 A3018 RMK A01 T01551168  RH  009%=      5-min Rain = 0
KSB1 242016Z 16012KT 16/M17 A3018 RMK A01 T01551172  RH  009%=      5-min Rain = 0
KSB1 242017Z 18017KT 16/M18 A3018 RMK A01 T01561175  RH  009%=      5-min Rain = 0
KSB1 242018Z 17017G22KT 15/M18 A3017 RMK A01 T01531181  RH  008%=      5-min Rain = 0
KSB1 242019Z 16012KT 15/M18 A3018 RMK A01 T01531178  RH  009%=      5-min Rain = 0
KSB1 242020Z 18015KT 16/M18 A3018 RMK A01 T01551176  RH  009%=      5-min Rain = 0
KSB1 242021Z 17013KT 16/M17 A3018 RMK A01 T01551174  RH  009%=      5-min Rain = 0
KSB1 242022Z 16013KT 16/M18 A3018 RMK A01 T01561176  RH  009%=      5-min Rain = 0
KSB1 242023Z 15013KT 16/M18 A3018 RMK A01 T01561177  RH  009%=      5-min Rain = 0
KSB1 242024Z 16011KT 16/M18 A3018 RMK A01 T01561175  RH  009%=      5-min Rain = 0
KSB1 242025Z 18013G18KT 16/M17 A3017 RMK A01 T01581169  RH  009%=      5-min Rain = 0
KSB1 242026Z 18014KT 16/M17 A3017 RMK A01 T01551168  RH  009%=      5-min Rain = 0
KSB1 242027Z 18017KT 15/M17 A3017 RMK A01 T01541170  RH  009%=      5-min Rain = 0
KSB1 242028Z 17014KT 16/M17 A3017 RMK A01 T01561174  RH  009%=      5-min Rain = 0
KSB1 242029Z 17016KT 16/M18 A3017 RMK A01 T01561175  RH  009%=      5-min Rain = 0
KSB1 242030Z 17013KT 15/M17 A3017 RMK A01 T01531172  RH  009%=      5-min Rain = 0
KSB1 242031Z 18017KT 15/M17 A3017 RMK A01 T01541167  RH  010%=      5-min Rain = 0
KSB1 242032Z 18017KT 15/M17 A3017 RMK A01 T01541169  RH  009%=      5-min Rain = 0
KSB1 242033Z 19016KT 15/M17 A3016 RMK A01 T01521168  RH  010%=      5-min Rain = 0
KSB1 242034Z 19016KT 15/M17 A3016 RMK A01 T01511167  RH  010%=      5-min Rain = 0
KSB1 242035Z 19014KT 15/M17 A3016 RMK A01 T01501165  RH  010%=      5-min Rain = 0
KSB1 242036Z 19013KT 15/M16 A3017 RMK A01 T01501164  RH  010%=      5-min Rain = 0
KSB1 242037Z 17015KT 15/M16 A3016 RMK A01 T01491163  RH  010%=      5-min Rain = 0
KSB1 242038Z 18014KT 15/M16 A3016 RMK A01 T01531159  RH  010%=      5-min Rain = 0
KSB1 242039Z 18019G24KT 15/M16 A3016 RMK A01 T01541160  RH  010%=      5-min Rain = 0
KSB1 242040Z 18017KT 15/M17 A3016 RMK A01 T01531168  RH  009%=      5-min Rain = 0
KSB1 242041Z 18016KT 15/M17 A3016 RMK A01 T01511169  RH  009%=      5-min Rain = 0
KSB1 242042Z 18016G21KT 15/M17 A3016 RMK A01 T01511171  RH  009%=      5-min Rain = 0
KSB1 242043Z 18018KT 15/M17 A3016 RMK A01 T01541171  RH  009%=      5-min Rain = 0
KSB1 242044Z 18018KT 16/M17 A3016 RMK A01 T01551167  RH  009%=      5-min Rain = 0
KSB1 242045Z 19018KT 16/M16 A3016 RMK A01 T01551163  RH  010%=      5-min Rain = 0
KSB1 242046Z 18015KT 15/M16 A3016 RMK A01 T01531162  RH  010%=      5-min Rain = 0
KSB1 242047Z 18018KT 16/M16 A3016 RMK A01 T01571158  RH  010%=      5-min Rain = 0
KSB1 242048Z 18015KT 16/M16 A3016 RMK A01 T01571164  RH  010%=      5-min Rain = 0
KSB1 242049Z 18015KT 16/M17 A3016 RMK A01 T01601166  RH  009%=      5-min Rain = 0
KSB1 242050Z 17018G24KT 16/M17 A3016 RMK A01 T01621167  RH  009%=      5-min Rain = 0
KSB1 242051Z 17018KT 16/M17 A3016 RMK A01 T01601166  RH  009%=      5-min Rain = 0
KSB1 242052Z 16016KT 16/M17 A3016 RMK A01 T01591166  RH  009%=      5-min Rain = 0
KSB1 242053Z 16014KT 16/M17 A3016 RMK A01 T01561165  RH  010%=      5-min Rain = 0
KSB1 242054Z 17013KT 16/M16 A3016 RMK A01 T01571162  RH  010%=      5-min Rain = 0
KSB1 242055Z 18012G18KT 16/M16 A3016 RMK A01 T01601160  RH  010%=      5-min Rain = 0
KSB1 242056Z 19014G19KT 16/M16 A3016 RMK A01 T01591157  RH  010%=      5-min Rain = 0
KSB1 242057Z 18017KT 16/M16 A3015 RMK A01 T01571156  RH  010%=      5-min Rain = 0
KSB1 242058Z 18017KT 16/M15 A3015 RMK A01 T01571153  RH  010%=      5-min Rain = 0
KSB1 242059Z 19017KT 16/M15 A3015 RMK A01 T01571153  RH  011%=      5-min Rain = 0
KSB1 242100Z 18016KT 16/M16 A3015 RMK A01 T01571156  RH  010%=      5-min Rain = 0
KSB1 242101Z 17017KT 16/M16 A3015 RMK A01 T01581156  RH  010%=      5-min Rain = 0
KSB1 242102Z 17016KT 16/M16 A3015 RMK A01 T01581157  RH  010%=      5-min Rain = 0
KSB1 242103Z 17013KT 16/M16 A3015 RMK A01 T01551157  RH  010%=      5-min Rain = 0
KSB1 242104Z 18017KT 16/M15 A3015 RMK A01 T01551153  RH  011%=      5-min Rain = 0
KSB1 242105Z 18015KT 16/M15 A3015 RMK A01 T01561151  RH  011%=      5-min Rain = 0
KSB1 242106Z 18011KT 16/M15 A3015 RMK A01 T01571149  RH  011%=      5-min Rain = 0
KSB1 242107Z 17011KT 16/M15 A3015 RMK A01 T01571149  RH  011%=      5-min Rain = 0
KSB1 242108Z 18015KT 16/M15 A3015 RMK A01 T01571150  RH  011%=      5-min Rain = 0
KSB1 242109Z 16015KT 16/M15 A3015 RMK A01 T01621151  RH  010%=      5-min Rain = 0
KSB1 242110Z 15010KT 16/M16 A3015 RMK A01 T01611156  RH  010%=      5-min Rain = 0
KSB1 242111Z 17014KT 16/M16 A3015 RMK A01 T01611160  RH  010%=      5-min Rain = 0
KSB1 242112Z 17015G20KT 16/M16 A3015 RMK A01 T01641162  RH  009%=      5-min Rain = 0
KSB1 242113Z 17016KT 16/M16 A3015 RMK A01 T01641159  RH  010%=      5-min Rain = 0
KSB1 242114Z 16011KT 16/M16 A3015 RMK A01 T01631159  RH  010%=      5-min Rain = 0
KSB1 242115Z 17011KT 16/M16 A3015 RMK A01 T01631157  RH  010%=      5-min Rain = 0
KSB1 242116Z 17012KT 16/M16 A3015 RMK A01 T01621156  RH  010%=      5-min Rain = 0
KSB1 242117Z 17009KT 16/M15 A3015 RMK A01 T01611151  RH  010%=      5-min Rain = 0
KSB1 242118Z 15012KT 16/M15 A3014 RMK A01 T01621153  RH  010%=      5-min Rain = 0
KSB1 242119Z 15015KT 16/M16 A3014 RMK A01 T01641157  RH  010%=      5-min Rain = 0
KSB1 242120Z 15015KT 17/M16 A3014 RMK A01 T01651158  RH  010%=      5-min Rain = 0
KSB1 242121Z 16014KT 16/M16 A3014 RMK A01 T01641160  RH  009%=      5-min Rain = 0
KSB1 242122Z 16014KT 16/M16 A3014 RMK A01 T01641157  RH  010%=      5-min Rain = 0
KSB1 242123Z 17014KT 17/M16 A3014 RMK A01 T01661159  RH  009%=      5-min Rain = 0
KSB1 242124Z 18017KT 17/M16 A3014 RMK A01 T01651163  RH  009%=      5-min Rain = 0
KSB1 242125Z 18017KT 16/M16 A3014 RMK A01 T01641161  RH  009%=      5-min Rain = 0
KSB1 242126Z 17017KT 16/M16 A3014 RMK A01 T01641160  RH  009%=      5-min Rain = 0
KSB1 242127Z 18016KT 16/M16 A3014 RMK A01 T01631163  RH  009%=      5-min Rain = 0
KSB1 242128Z 17016KT 16/M16 A3014 RMK A01 T01601163  RH  009%=      5-min Rain = 0
KSB1 242129Z 18016KT 16/M16 A3014 RMK A01 T01621162  RH  009%=      5-min Rain = 0
KSB1 242130Z 18013KT 16/M17 A3014 RMK A01 T01611165  RH  009%=      5-min Rain = 0
KSB1 242131Z 17016KT 16/M16 A3013 RMK A01 T01611163  RH  009%=      5-min Rain = 0
KSB1 242132Z 18017KT 16/M16 A3013 RMK A01 T01621161  RH  010%=      5-min Rain = 0
KSB1 242133Z 18017G22KT 16/M16 A3013 RMK A01 T01611160  RH  010%=      5-min Rain = 0
KSB1 242134Z 18016G21KT 16/M16 A3013 RMK A01 T01611158  RH  010%=      5-min Rain = 0
KSB1 242135Z 18016KT 16/M15 A3013 RMK A01 T01631154  RH  010%=      5-min Rain = 0
KSB1 242136Z 18015KT 16/M16 A3013 RMK A01 T01631155  RH  010%=      5-min Rain = 0
KSB1 242137Z 17014KT 16/M16 A3013 RMK A01 T01621157  RH  010%=      5-min Rain = 0
KSB1 242138Z 17011KT 16/M16 A3013 RMK A01 T01601160  RH  010%=      5-min Rain = 0
KSB1 242139Z 18015KT 16/M16 A3013 RMK A01 T01601157  RH  010%=      5-min Rain = 0
KSB1 242140Z 18014KT 16/M15 A3013 RMK A01 T01621154  RH  010%=      5-min Rain = 0
KSB1 242141Z 17013KT 16/M16 A3013 RMK A01 T01641158  RH  010%=      5-min Rain = 0
KSB1 242142Z 16014G19KT 16/M16 A3013 RMK A01 T01641162  RH  009%=      5-min Rain = 0
KSB1 242143Z 16013KT 17/M16 A3013 RMK A01 T01671159  RH  009%=      5-min Rain = 0
KSB1 242144Z 17014KT 17/M16 A3013 RMK A01 T01691160  RH  009%=      5-min Rain = 0
KSB1 242145Z 18013KT 17/M16 A3013 RMK A01 T01671161  RH  009%=      5-min Rain = 0
KSB1 242146Z 19012G19KT 16/M16 A3013 RMK A01 T01641159  RH  009%=      5-min Rain = 0
KSB1 242147Z 17014KT 17/M16 A3013 RMK A01 T01651157  RH  010%=      5-min Rain = 0
KSB1 242148Z 16016KT 17/M16 A3013 RMK A01 T01661159  RH  009%=      5-min Rain = 0
KSB1 242149Z 15013KT 17/M16 A3013 RMK A01 T01671160  RH  009%=      5-min Rain = 0
KSB1 242150Z 16013KT 17/M16 A3013 RMK A01 T01691158  RH  009%=      5-min Rain = 0
KSB1 242151Z 18012G17KT 17/M16 A3013 RMK A01 T01691156  RH  010%=      5-min Rain = 0
KSB1 242152Z 18016KT 17/M16 A3013 RMK A01 T01671155  RH  010%=      5-min Rain = 0
KSB1 242153Z 18014KT 17/M16 A3013 RMK A01 T01651157  RH  010%=      5-min Rain = 0
KSB1 242154Z 16012KT 17/M16 A3013 RMK A01 T01661157  RH  010%=      5-min Rain = 0
KSB1 242155Z 16013KT 17/M16 A3013 RMK A01 T01681156  RH  010%=      5-min Rain = 0
KSB1 242156Z 16011KT 17/M16 A3013 RMK A01 T01701159  RH  009%=      5-min Rain = 0
KSB1 242157Z 17011KT 17/M16 A3013 RMK A01 T01691161  RH  009%=      5-min Rain = 0
KSB1 242158Z 16011KT 17/M16 A3013 RMK A01 T01681164  RH  009%=      5-min Rain = 0
KSB1 242159Z 18009KT 17/M17 A3012 RMK A01 T01691165  RH  009%=      5-min Rain = 0
KSB1 242200Z 19011KT 17/M16 A3012 RMK A01 T01691161  RH  009%=      5-min Rain = 0
KSB1 242201Z 17014KT 17/M16 A3012 RMK A01 T01691162  RH  009%=      5-min Rain = 0
KSB1 242202Z 16012KT 17/M16 A3012 RMK A01 T01691164  RH  009%=      5-min Rain = 0
KSB1 242203Z 15010KT 17/M17 A3012 RMK A01 T01691168  RH  009%=      5-min Rain = 0
KSB1 242204Z 18011KT 17/M17 A3012 RMK A01 T01701167  RH  009%=      5-min Rain = 0
KSB1 242205Z 18014KT 17/M16 A3012 RMK A01 T01721162  RH  009%=      5-min Rain = 0
KSB1 242206Z 17016KT 17/M16 A3012 RMK A01 T01721161  RH  009%=      5-min Rain = 0
KSB1 242207Z 16015KT 17/M16 A3012 RMK A01 T01701160  RH  009%=      5-min Rain = 0
KSB1 242208Z 17014KT 17/M16 A3012 RMK A01 T01691158  RH  009%=      5-min Rain = 0
KSB1 242209Z 17013KT 17/M16 A3012 RMK A01 T01701158  RH  009%=      5-min Rain = 0
KSB1 242210Z 17012KT 17/M16 A3012 RMK A01 T01691159  RH  009%=      5-min Rain = 0
KSB1 242211Z 17010KT 17/M16 A3012 RMK A01 T01691158  RH  009%=      5-min Rain = 0
KSB1 242212Z 14010KT 17/M16 A3012 RMK A01 T01681157  RH  009%=      5-min Rain = 0
KSB1 242213Z 15009KT 17/M16 A3012 RMK A01 T01701156  RH  009%=      5-min Rain = 0
KSB1 242214Z 15010KT 17/M16 A3012 RMK A01 T01711157  RH  009%=      5-min Rain = 0
KSB1 242215Z 15010KT 17/M16 A3012 RMK A01 T01701157  RH  009%=      5-min Rain = 0
KSB1 242216Z 17015KT 17/M16 A3012 RMK A01 T01711158  RH  009%=      5-min Rain = 0
KSB1 242217Z 17013KT 17/M16 A3012 RMK A01 T01691164  RH  009%=      5-min Rain = 0
KSB1 242218Z 16015KT 17/M17 A3012 RMK A01 T01681165  RH  009%=      5-min Rain = 0
KSB1 242219Z 16015KT 17/M17 A3012 RMK A01 T01691168  RH  009%=      5-min Rain = 0
KSB1 242220Z 17014KT 17/M17 A3012 RMK A01 T01691170  RH  008%=      5-min Rain = 0
KSB1 242221Z 16014KT 17/M17 A3012 RMK A01 T01701170  RH  008%=      5-min Rain = 0
KSB1 242222Z 16013KT 17/M17 A3012 RMK A01 T01701167  RH  009%=      5-min Rain = 0
KSB1 242223Z 16013KT 17/M17 A3012 RMK A01 T01711166  RH  009%=      5-min Rain = 0
KSB1 242224Z 16014KT 17/M16 A3012 RMK A01 T01721164  RH  009%=      5-min Rain = 0
KSB1 242225Z 16009G14KT 17/M16 A3012 RMK A01 T01721164  RH  009%=      5-min Rain = 0
KSB1 242226Z 15009KT 17/M16 A3012 RMK A01 T01711164  RH  009%=      5-min Rain = 0
KSB1 242227Z 15009KT 17/M16 A3012 RMK A01 T01711163  RH  009%=      5-min Rain = 0
KSB1 242228Z 15011KT 17/M16 A3012 RMK A01 T01721162  RH  009%=      5-min Rain = 0
KSB1 242229Z 15012KT 18/M17 A3012 RMK A01 T01751167  RH  008%=      5-min Rain = 0
KSB1 242230Z 15013KT 18/M17 A3012 RMK A01 T01771170  RH  008%=      5-min Rain = 0
KSB1 242231Z 16011KT 18/M17 A3012 RMK A01 T01751170  RH  008%=      5-min Rain = 0
KSB1 242232Z 15011KT 18/M16 A3012 RMK A01 T01751163  RH  009%=      5-min Rain = 0
KSB1 242233Z 17013KT 18/M16 A3012 RMK A01 T01771161  RH  009%=      5-min Rain = 0
KSB1 242234Z 17013KT 18/M16 A3012 RMK A01 T01761163  RH  009%=      5-min Rain = 0
KSB1 242235Z 16011KT 18/M16 A3012 RMK A01 T01761163  RH  009%=      5-min Rain = 0
KSB1 242236Z 17012KT 17/M16 A3012 RMK A01 T01741164  RH  009%=      5-min Rain = 0
KSB1 242237Z 16013KT 17/M17 A3012 RMK A01 T01721168  RH  008%=      5-min Rain = 0
KSB1 242238Z 17013KT 17/M17 A3012 RMK A01 T01701168  RH  008%=      5-min Rain = 0
KSB1 242239Z 16012KT 17/M17 A3011 RMK A01 T01691168  RH  009%=      5-min Rain = 0
KSB1 242240Z 16009KT 17/M17 A3011 RMK A01 T01691167  RH  009%=      5-min Rain = 0
KSB1 242241Z 18012KT 17/M16 A3011 RMK A01 T01711163  RH  009%=      5-min Rain = 0
KSB1 242242Z 17014KT 17/M16 A3011 RMK A01 T01731160  RH  009%=      5-min Rain = 0
KSB1 242243Z 17013KT 17/M16 A3011 RMK A01 T01721161  RH  009%=      5-min Rain = 0
KSB1 242244Z 17011G16KT 17/M16 A3011 RMK A01 T01711161  RH  009%=      5-min Rain = 0
KSB1 242245Z 17016KT 17/M16 A3011 RMK A01 T01721162  RH  009%=      5-min Rain = 0
KSB1 242246Z 16017KT 17/M17 A3011 RMK A01 T01721168  RH  008%=      5-min Rain = 0
KSB1 242247Z 16014KT 17/M17 A3012 RMK A01 T01711167  RH  009%=      5-min Rain = 0
KSB1 242248Z 17014KT 17/M17 A3012 RMK A01 T01701166  RH  009%=      5-min Rain = 0
KSB1 242249Z 17013KT 17/M17 A3012 RMK A01 T01701168  RH  009%=      5-min Rain = 0
KSB1 242250Z 17012KT 17/M17 A3012 RMK A01 T01701168  RH  009%=      5-min Rain = 0
KSB1 242251Z 16016KT 17/M17 A3012 RMK A01 T01701167  RH  009%=      5-min Rain = 0
KSB1 242252Z 16016KT 17/M17 A3012 RMK A01 T01701168  RH  009%=      5-min Rain = 0
KSB1 242253Z 17013KT 17/M17 A3012 RMK A01 T01701167  RH  009%=      5-min Rain = 0
KSB1 242254Z 18012KT 17/M17 A3011 RMK A01 T01691166  RH  009%=      5-min Rain = 0
KSB1 242255Z 17012KT 17/M17 A3011 RMK A01 T01691166  RH  009%=      5-min Rain = 0
KSB1 242256Z 17012KT 17/M17 A3011 RMK A01 T01681165  RH  009%=      5-min Rain = 0
KSB1 242257Z 17009KT 17/M17 A3012 RMK A01 T01671165  RH  009%=      5-min Rain = 0
KSB1 242258Z 16008KT 17/M16 A3012 RMK A01 T01681161  RH  009%=      5-min Rain = 0
KSB1 242259Z 17007KT 17/M16 A3012 RMK A01 T01701160  RH  009%=      5-min Rain = 0
KSB1 242300Z 18009G14KT 17/M16 A3012 RMK A01 T01701161  RH  009%=      5-min Rain = 0
KSB1 242301Z 16013KT 17/M16 A3012 RMK A01 T01701160  RH  009%=      5-min Rain = 0
KSB1 242302Z 16011KT 17/M16 A3012 RMK A01 T01701160  RH  009%=      5-min Rain = 0
KSB1 242303Z 17009KT 17/M16 A3012 RMK A01 T01711159  RH  009%=      5-min Rain = 0
KSB1 242304Z 16009KT 17/M16 A3012 RMK A01 T01711160  RH  009%=      5-min Rain = 0
KSB1 242305Z 17011KT 17/M16 A3012 RMK A01 T01711160  RH  009%=      5-min Rain = 0
KSB1 242306Z 16012KT 17/M16 A3011 RMK A01 T01711160  RH  009%=      5-min Rain = 0
KSB1 242307Z 18012KT 17/M16 A3012 RMK A01 T01711158  RH  009%=      5-min Rain = 0
KSB1 242308Z 17012KT 17/M16 A3012 RMK A01 T01711158  RH  009%=      5-min Rain = 0
KSB1 242309Z 16014KT 17/M16 A3012 RMK A01 T01721158  RH  009%=      5-min Rain = 0
KSB1 242310Z 16011KT 17/M16 A3012 RMK A01 T01711160  RH  009%=      5-min Rain = 0
KSB1 242311Z 14009KT 17/M16 A3012 RMK A01 T01711160  RH  009%=      5-min Rain = 0
KSB1 242312Z 14010KT 17/M16 A3012 RMK A01 T01721161  RH  009%=      5-min Rain = 0
KSB1 242313Z 14011KT 17/M17 A3012 RMK A01 T01711165  RH  009%=      5-min Rain = 0
KSB1 242314Z 15011KT 17/M16 A3012 RMK A01 T01701164  RH  009%=      5-min Rain = 0
KSB1 242315Z 16012KT 17/M16 A3011 RMK A01 T01701164  RH  009%=      5-min Rain = 0
KSB1 242316Z 15008KT 17/M16 A3011 RMK A01 T01701163  RH  009%=      5-min Rain = 0
KSB1 242317Z 14008KT 17/M16 A3011 RMK A01 T01711161  RH  009%=      5-min Rain = 0
KSB1 242318Z 14008KT 17/M16 A3011 RMK A01 T01711163  RH  009%=      5-min Rain = 0
KSB1 242319Z 15008KT 17/M16 A3011 RMK A01 T01711162  RH  009%=      5-min Rain = 0
KSB1 242320Z 15008KT 17/M16 A3011 RMK A01 T01721162  RH  009%=      5-min Rain = 0
KSB1 242321Z 13009KT 17/M16 A3011 RMK A01 T01721162  RH  009%=      5-min Rain = 0
KSB1 242322Z 14012KT 17/M16 A3011 RMK A01 T01721163  RH  009%=      5-min Rain = 0
KSB1 242323Z 13010KT 17/M16 A3011 RMK A01 T01711164  RH  009%=      5-min Rain = 0
KSB1 242324Z 14008KT 17/M17 A3011 RMK A01 T01691165  RH  009%=      5-min Rain = 0
KSB1 242325Z 13009KT 17/M16 A3011 RMK A01 T01681163  RH  009%=      5-min Rain = 0
KSB1 242326Z 13011KT 17/M16 A3011 RMK A01 T01681163  RH  009%=      5-min Rain = 0
KSB1 242327Z 13009G14KT 17/M16 A3011 RMK A01 T01691163  RH  009%=      5-min Rain = 0
KSB1 242328Z 13010KT 17/M16 A3011 RMK A01 T01691164  RH  009%=      5-min Rain = 0
KSB1 242329Z 14009KT 17/M17 A3011 RMK A01 T01701165  RH  009%=      5-min Rain = 0
KSB1 242330Z 13011KT 17/M16 A3011 RMK A01 T01701164  RH  009%=      5-min Rain = 0
KSB1 242331Z 15013KT 17/M16 A3011 RMK A01 T01701164  RH  009%=      5-min Rain = 0
KSB1 242332Z 14013KT 17/M17 A3011 RMK A01 T01701165  RH  009%=      5-min Rain = 0
KSB1 242333Z 14013KT 17/M17 A3011 RMK A01 T01701167  RH  009%=      5-min Rain = 0
KSB1 242334Z 13011KT 17/M17 A3011 RMK A01 T01701167  RH  009%=      5-min Rain = 0
KSB1 242335Z 14010KT 17/M17 A3011 RMK A01 T01691167  RH  009%=      5-min Rain = 0
KSB1 242336Z 14011KT 17/M17 A3011 RMK A01 T01691168  RH  009%=      5-min Rain = 0
KSB1 242337Z 14012KT 17/M17 A3011 RMK A01 T01691168  RH  009%=      5-min Rain = 0
KSB1 242338Z 14010KT 17/M17 A3011 RMK A01 T01691168  RH  009%=      5-min Rain = 0
KSB1 242339Z 16009KT 17/M17 A301 RMK A01 T01691168  RH  009%=      5-min Rain = 0
KSB1 242340Z 17009KT 17/M17 A301 RMK A01 T01701167  RH  009%=      5-min Rain = 0
KSB1 242341Z 15008KT 17/M17 A3011 RMK A01 T01701168  RH  008%=      5-min Rain = 0
KSB1 242342Z 14011KT 17/M17 A301 RMK A01 T01711167  RH  009%=      5-min Rain = 0
KSB1 242343Z 14010KT 17/M17 A301 RMK A01 T01711169  RH  008%=      5-min Rain = 0
KSB1 242344Z 14011KT 17/M17 A301 RMK A01 T01711168  RH  008%=      5-min Rain = 0
KSB1 242345Z 16012KT 17/M17 A301 RMK A01 T01711170  RH  008%=      5-min Rain = 0
KSB1 242346Z 15013KT 17/M17 A301 RMK A01 T01711170  RH  008%=      5-min Rain = 0
KSB1 242347Z 16012KT 17/M17 A301 RMK A01 T01711170  RH  008%=      5-min Rain = 0
KSB1 242348Z 16010KT 17/M17 A301 RMK A01 T01701169  RH  008%=      5-min Rain = 0
KSB1 242349Z 15011KT 17/M17 A301 RMK A01 T01711168  RH  008%=      5-min Rain = 0
KSB1 242350Z 15012KT 17/M17 A301 RMK A01 T01711168  RH  008%=      5-min Rain = 0
KSB1 242351Z 14012KT 17/M17 A301 RMK A01 T01711167  RH  008%=      5-min Rain = 0
KSB1 242352Z 15013KT 17/M17 A301 RMK A01 T01711168  RH  009%=      5-min Rain = 0
KSB1 242353Z 15014KT 17/M17 A301 RMK A01 T01701169  RH  008%=      5-min Rain = 0
KSB1 242354Z 15014KT 17/M17 A301 RMK A01 T01691170  RH  008%=      5-min Rain = 0
KSB1 242355Z 14013KT 17/M17 A301 RMK A01 T01681169  RH  009%=      5-min Rain = 0
KSB1 242356Z 14012KT 17/M17 A301 RMK A01 T01681168  RH  009%=      5-min Rain = 0
KSB1 242357Z 15013KT 17/M17 A301 RMK A01 T01681168  RH  009%=      5-min Rain = 0
KSB1 242358Z 14011KT 17/M17 A301 RMK A01 T01671168  RH  009%=      5-min Rain = 0
KSB1 242359Z 14012KT 17/M17 A301 RMK A01 T01671168  RH  009%=      5-min Rain = 0
KSB1 250000Z 14008KT 17/M17 A301 RMK A01 T01671168  RH  009%=      5-min Rain = 0
KSB1 250001Z 13011KT 17/M17 A301 RMK A01 T01671166  RH  009%=      5-min Rain = 0
KSB1 250002Z 15008KT 17/M16 A301 RMK A01 T01681164  RH  009%=      5-min Rain = 0
KSB1 250003Z 16009KT 17/M16 A301 RMK A01 T01681163  RH  009%=      5-min Rain = 0
KSB1 250004Z 16013KT 17/M16 A301 RMK A01 T01681163  RH  009%=      5-min Rain = 0
KSB1 250005Z 15012KT 17/M16 A301 RMK A01 T01671163  RH  009%=      5-min Rain = 0
KSB1 250006Z 14012KT 17/M16 A301 RMK A01 T01661164  RH  009%=      5-min Rain = 0
KSB1 250007Z 15010KT 17/M16 A301 RMK A01 T01651164  RH  009%=      5-min Rain = 0
KSB1 250008Z 15011KT 17/M16 A301 RMK A01 T01651163  RH  009%=      5-min Rain = 0
KSB1 250009Z 15010KT 17/M16 A301 RMK A01 T01651163  RH  009%=      5-min Rain = 0
KSB1 250010Z 15011KT 17/M16 A301 RMK A01 T01651162  RH  009%=      5-min Rain = 0
KSB1 250011Z 15011KT 17/M16 A301 RMK A01 T01651161  RH  009%=      5-min Rain = 0
KSB1 250012Z 15010KT 17/M16 A301 RMK A01 T01651161  RH  009%=      5-min Rain = 0
KSB1 250013Z 14010KT 17/M16 A301 RMK A01 T01651162  RH  009%=      5-min Rain = 0
KSB1 250014Z 14010KT 17/M16 A301 RMK A01 T01651162  RH  009%=      5-min Rain = 0
KSB1 250015Z 14012KT 17/M16 A301 RMK A01 T01651161  RH  009%=      5-min Rain = 0
KSB1 250016Z 14011KT 16/M16 A301 RMK A01 T01641162  RH  009%=      5-min Rain = 0
KSB1 250017Z 15010KT 16/M16 A301 RMK A01 T01631161  RH  009%=      5-min Rain = 0
KSB1 250018Z 15010KT 16/M16 A301 RMK A01 T01631160  RH  010%=      5-min Rain = 0
KSB1 250019Z 15009KT 16/M16 A301 RMK A01 T01631161  RH  009%=      5-min Rain = 0
KSB1 250020Z 16008KT 16/M16 A301 RMK A01 T01631160  RH  010%=      5-min Rain = 0
KSB1 250021Z 15008KT 16/M16 A301 RMK A01 T01631159  RH  010%=      5-min Rain = 0
KSB1 250022Z 15009KT 16/M16 A301 RMK A01 T01631160  RH  009%=      5-min Rain = 0
KSB1 250023Z 15010KT 16/M16 A301 RMK A01 T01631162  RH  009%=      5-min Rain = 0
KSB1 250024Z 15010KT 16/M16 A301 RMK A01 T01621162  RH  009%=      5-min Rain = 0
KSB1 250025Z 15009KT 16/M16 A301 RMK A01 T01621161  RH  010%=      5-min Rain = 0
KSB1 250026Z 16008KT 16/M16 A301 RMK A01 T01611161  RH  010%=      5-min Rain = 0
KSB1 250027Z 16009KT 16/M16 A301 RMK A01 T01601161  RH  010%=      5-min Rain = 0
KSB1 250028Z 16009KT 16/M16 A301 RMK A01 T01601160  RH  010%=      5-min Rain = 0
KSB1 250029Z 17011KT 16/M16 A301 RMK A01 T01591160  RH  010%=      5-min Rain = 0
KSB1 250030Z 16008KT 16/M16 A301 RMK A01 T01581159  RH  010%=      5-min Rain = 0
KSB1 250031Z 16008KT 16/M16 A301 RMK A01 T01571158  RH  010%=      5-min Rain = 0
KSB1 250032Z 16010KT 16/M16 A301 RMK A01 T01561157  RH  010%=      5-min Rain = 0
KSB1 250033Z 16008KT 16/M16 A301 RMK A01 T01561158  RH  010%=      5-min Rain = 0
KSB1 250034Z 16009KT 16/M16 A301 RMK A01 T01551158  RH  010%=      5-min Rain = 0
KSB1 250035Z 16008KT 16/M16 A301 RMK A01 T01551159  RH  010%=      5-min Rain = 0
KSB1 250036Z 16008KT 15/M16 A301 RMK A01 T01541159  RH  010%=      5-min Rain = 0
KSB1 250037Z 15008KT 15/M16 A301 RMK A01 T01541159  RH  010%=      5-min Rain = 0
KSB1 250038Z 15008KT 15/M16 A301 RMK A01 T01531159  RH  010%=      5-min Rain = 0
KSB1 250039Z 15007KT 15/M16 A301 RMK A01 T01531159  RH  010%=      5-min Rain = 0
KSB1 250040Z 15009KT 15/M16 A301 RMK A01 T01521159  RH  010%=      5-min Rain = 0
KSB1 250041Z 15008KT 15/M16 A301 RMK A01 T01511160  RH  010%=      5-min Rain = 0
KSB1 250042Z 16006KT 15/M16 A301 RMK A01 T01501161  RH  010%=      5-min Rain = 0
KSB1 250043Z 15006KT 15/M16 A301 RMK A01 T01491161  RH  010%=      5-min Rain = 0
KSB1 250044Z 15007KT 15/M16 A301 RMK A01 T01471161  RH  010%=      5-min Rain = 0
KSB1 250045Z 16007KT 15/M16 A301 RMK A01 T01451161  RH  011%=      5-min Rain = 0
KSB1 250046Z 15007KT 14/M16 A301 RMK A01 T01441161  RH  011%=      5-min Rain = 0
KSB1 250047Z 15007KT 14/M16 A301 RMK A01 T01431161  RH  011%=      5-min Rain = 0
KSB1 250048Z 16006KT 14/M16 A301 RMK A01 T01431161  RH  011%=      5-min Rain = 0
KSB1 250049Z 16007KT 14/M16 A301 RMK A01 T01421162  RH  011%=      5-min Rain = 0
KSB1 250050Z 16007KT 14/M16 A301 RMK A01 T01411162  RH  011%=      5-min Rain = 0
KSB1 250051Z 16006KT 14/M16 A301 RMK A01 T01401161  RH  011%=      5-min Rain = 0
KSB1 250052Z 16006KT 14/M16 A301 RMK A01 T01391161  RH  011%=      5-min Rain = 0
KSB1 250053Z 16006KT 14/M16 A301 RMK A01 T01371162  RH  011%=      5-min Rain = 0
KSB1 250054Z 17006KT 14/M16 A301 RMK A01 T01361162  RH  011%=      5-min Rain = 0
KSB1 250055Z 16006KT 14/M16 A301 RMK A01 T01351162  RH  011%=      5-min Rain = 0
KSB1 250056Z 17006KT 13/M16 A301 RMK A01 T01341161  RH  011%=      5-min Rain = 0
KSB1 250057Z 17006KT 13/M16 A301 RMK A01 T01331161  RH  011%=      5-min Rain = 0
KSB1 250058Z 17006KT 13/M16 A301 RMK A01 T01321161  RH  012%=      5-min Rain = 0
KSB1 250059Z 17006KT 13/M16 A301 RMK A01 T01311161  RH  012%=      5-min Rain = 0
KSB1 250100Z 17005KT 13/M16 A301 RMK A01 T01301161  RH  012%=      5-min Rain = 0
KSB1 250101Z 17005KT 13/M16 A301 RMK A01 T01301161  RH  012%=      5-min Rain = 0
KSB1 250102Z 17005KT 13/M16 A301 RMK A01 T01291162  RH  012%=      5-min Rain = 0
KSB1 250103Z 18005KT 13/M16 A301 RMK A01 T01291162  RH  012%=      5-min Rain = 0
KSB1 250104Z 18004KT 13/M16 A301 RMK A01 T01281162  RH  012%=      5-min Rain = 0
KSB1 250105Z 18005KT 13/M16 A301 RMK A01 T01281162  RH  012%=      5-min Rain = 0
KSB1 250106Z 19005KT 13/M16 A301 RMK A01 T01271162  RH  012%=      5-min Rain = 0
KSB1 250107Z 19005KT 13/M16 A301 RMK A01 T01281161  RH  012%=      5-min Rain = 0
KSB1 250108Z 20005KT 13/M16 A301 RMK A01 T01291161  RH  012%=      5-min Rain = 0
KSB1 250109Z 19004KT 13/M16 A301 RMK A01 T01291161  RH  012%=      5-min Rain = 0
KSB1 250110Z 18005KT 13/M16 A301 RMK A01 T01291161  RH  012%=      5-min Rain = 0
KSB1 250111Z 18004KT 13/M16 A301 RMK A01 T01291161  RH  012%=      5-min Rain = 0
KSB1 250112Z 18004KT 13/M16 A301 RMK A01 T01291161  RH  012%=      5-min Rain = 0
KSB1 250113Z 19004KT 13/M16 A301 RMK A01 T01291160  RH  012%=      5-min Rain = 0
KSB1 250114Z 18004KT 13/M16 A3011 RMK A01 T01291160  RH  012%=      5-min Rain = 0
KSB1 250115Z 19004KT 13/M16 A3011 RMK A01 T01291160  RH  012%=      5-min Rain = 0
KSB1 250116Z 18004KT 13/M16 A3011 RMK A01 T01291160  RH  012%=      5-min Rain = 0
KSB1 250117Z 19005KT 13/M16 A3011 RMK A01 T01281160  RH  012%=      5-min Rain = 0
KSB1 250118Z 19005KT 13/M16 A3011 RMK A01 T01271160  RH  012%=      5-min Rain = 0
KSB1 250119Z 19005KT 13/M16 A301 RMK A01 T01261161  RH  012%=      5-min Rain = 0
KSB1 250120Z 20005KT 13/M16 A301 RMK A01 T01261161  RH  012%=      5-min Rain = 0
KSB1 250121Z 19006KT 13/M16 A301 RMK A01 T01251160  RH  012%=      5-min Rain = 0
KSB1 250122Z 19006KT 12/M16 A301 RMK A01 T01241161  RH  012%=      5-min Rain = 0
KSB1 250123Z 19007KT 12/M16 A301 RMK A01 T01231161  RH  012%=      5-min Rain = 0
KSB1 250124Z 19007KT 12/M16 A3011 RMK A01 T01211161  RH  012%=      5-min Rain = 0
KSB1 250125Z 18006KT 12/M16 A3011 RMK A01 T01201161  RH  012%=      5-min Rain = 0
KSB1 250126Z 18006KT 12/M16 A3011 RMK A01 T01191160  RH  013%=      5-min Rain = 0
KSB1 250127Z 18006KT 12/M16 A3011 RMK A01 T01181160  RH  013%=      5-min Rain = 0
KSB1 250128Z 18006KT 12/M16 A3011 RMK A01 T01181160  RH  013%=      5-min Rain = 0
KSB1 250129Z 18006KT 12/M16 A3011 RMK A01 T01171159  RH  013%=      5-min Rain = 0
KSB1 250130Z 18005KT 12/M16 A3011 RMK A01 T01181160  RH  013%=      5-min Rain = 0
KSB1 250131Z 19005KT 12/M16 A301 RMK A01 T01181160  RH  013%=      5-min Rain = 0
KSB1 250132Z 19005KT 12/M16 A301 RMK A01 T01181160  RH  013%=      5-min Rain = 0
KSB1 250133Z 19005KT 12/M16 A301 RMK A01 T01181159  RH  013%=      5-min Rain = 0
KSB1 250134Z 19005KT 12/M16 A301 RMK A01 T01191158  RH  013%=      5-min Rain = 0
KSB1 250135Z 19006KT 12/M16 A301 RMK A01 T01201158  RH  013%=      5-min Rain = 0
KSB1 250136Z 19006KT 12/M16 A301 RMK A01 T01211158  RH  013%=      5-min Rain = 0
KSB1 250137Z 19005KT 12/M16 A301 RMK A01 T01221157  RH  013%=      5-min Rain = 0
KSB1 250138Z 18005KT 12/M16 A3011 RMK A01 T01221157  RH  013%=      5-min Rain = 0
KSB1 250139Z 12004KT 12/M16 A3011 RMK A01 T01221158  RH  013%=      5-min Rain = 0
KSB1 250140Z 12004KT 12/M16 A3011 RMK A01 T01181159  RH  013%=      5-min Rain = 0
KSB1 250141Z 13003KT 12/M16 A3011 RMK A01 T01171159  RH  013%=      5-min Rain = 0
KSB1 250142Z 13003KT 12/M16 A3011 RMK A01 T01151159  RH  013%=      5-min Rain = 0
KSB1 250143Z 13004KT 11/M16 A3011 RMK A01 T01131159  RH  013%=      5-min Rain = 0
KSB1 250144Z 13003KT 11/M16 A3011 RMK A01 T01131158  RH  013%=      5-min Rain = 0
KSB1 250145Z 14003KT 11/M16 A3011 RMK A01 T01141158  RH  013%=      5-min Rain = 0
KSB1 250146Z 14003KT 11/M16 A3011 RMK A01 T01141159  RH  013%=      5-min Rain = 0
KSB1 250147Z 15002KT 11/M16 A3011 RMK A01 T01121160  RH  013%=      5-min Rain = 0
KSB1 250148Z 16002KT 11/M16 A3011 RMK A01 T01121160  RH  013%=      5-min Rain = 0
KSB1 250149Z 16002KT 11/M16 A3011 RMK A01 T01121160  RH  013%=      5-min Rain = 0
KSB1 250150Z 17002KT 11/M16 A3011 RMK A01 T01131160  RH  013%=      5-min Rain = 0
KSB1 250151Z 18003KT 11/M16 A3011 RMK A01 T01141160  RH  013%=      5-min Rain = 0
KSB1 250152Z 18003KT 11/M16 A3011 RMK A01 T01141160  RH  013%=      5-min Rain = 0
KSB1 250153Z 18003KT 12/M16 A3011 RMK A01 T01151159  RH  013%=      5-min Rain = 0
KSB1 250154Z 18003KT 12/M16 A3011 RMK A01 T01151159  RH  013%=      5-min Rain = 0
KSB1 250155Z 17004KT 12/M16 A3011 RMK A01 T01151159  RH  013%=      5-min Rain = 0
KSB1 250156Z 17004KT 11/M16 A3011 RMK A01 T01141159  RH  013%=      5-min Rain = 0
KSB1 250157Z 17004KT 11/M16 A3011 RMK A01 T01141159  RH  013%=      5-min Rain = 0
KSB1 250158Z 17004KT 11/M16 A3011 RMK A01 T01141159  RH  013%=      5-min Rain = 0
KSB1 250159Z 15004KT 11/M16 A3011 RMK A01 T01131159  RH  013%=      5-min Rain = 0
KSB1 250200Z 14004KT 11/M16 A3011 RMK A01 T01131159  RH  013%=      5-min Rain = 0
KSB1 250201Z 14004KT 11/M16 A3011 RMK A01 T01131159  RH  013%=      5-min Rain = 0
KSB1 250202Z 15004KT 11/M16 A3011 RMK A01 T01131159  RH  013%=      5-min Rain = 0
KSB1 250203Z 15003KT 11/M16 A3011 RMK A01 T01141160  RH  013%=      5-min Rain = 0
KSB1 250204Z 14003KT 11/M16 A3011 RMK A01 T01141159  RH  013%=      5-min Rain = 0
KSB1 250205Z 14003KT 12/M16 A3011 RMK A01 T01151159  RH  013%=      5-min Rain = 0
KSB1 250206Z 14004KT 12/M16 A3011 RMK A01 T01151158  RH  013%=      5-min Rain = 0
KSB1 250207Z 14004KT 12/M16 A3011 RMK A01 T01161159  RH  013%=      5-min Rain = 0
KSB1 250208Z 14004KT 12/M16 A3011 RMK A01 T01161158  RH  013%=      5-min Rain = 0
KSB1 250209Z 14004KT 12/M16 A3011 RMK A01 T01161158  RH  013%=      5-min Rain = 0
KSB1 250210Z 15004KT 12/M16 A3011 RMK A01 T01171158  RH  013%=      5-min Rain = 0
KSB1 250211Z 15004KT 12/M16 A3011 RMK A01 T01181157  RH  013%=      5-min Rain = 0
KSB1 250212Z 15004KT 12/M16 A3011 RMK A01 T01181157  RH  013%=      5-min Rain = 0
KSB1 250213Z 16004KT 12/M16 A3011 RMK A01 T01191157  RH  013%=      5-min Rain = 0
KSB1 250214Z 16004KT 12/M16 A3011 RMK A01 T01191157  RH  013%=      5-min Rain = 0
KSB1 250215Z 16004KT 12/M16 A3011 RMK A01 T01191157  RH  013%=      5-min Rain = 0
KSB1 250216Z 17004KT 12/M16 A3011 RMK A01 T01201157  RH  013%=      5-min Rain = 0
KSB1 250217Z 16004KT 12/M16 A3011 RMK A01 T01201157  RH  013%=      5-min Rain = 0
KSB1 250218Z 16003KT 12/M16 A3011 RMK A01 T01201157  RH  013%=      5-min Rain = 0
KSB1 250219Z 15003KT 12/M16 A3011 RMK A01 T01201157  RH  013%=      5-min Rain = 0
KSB1 250220Z 15004KT 12/M16 A3011 RMK A01 T01211156  RH  013%=      5-min Rain = 0
KSB1 250221Z 15004KT 12/M16 A3011 RMK A01 T01211157  RH  013%=      5-min Rain = 0
KSB1 250222Z 15004KT 12/M16 A3011 RMK A01 T01211157  RH  013%=      5-min Rain = 0
KSB1 250223Z 15004KT 12/M16 A3011 RMK A01 T01211157  RH  013%=      5-min Rain = 0
KSB1 250224Z 15004KT 12/M16 A3011 RMK A01 T01211157  RH  013%=      5-min Rain = 0
KSB1 250225Z 16004KT 12/M16 A3011 RMK A01 T01211157  RH  013%=      5-min Rain = 0
KSB1 250226Z 16004KT 12/M16 A3011 RMK A01 T01211157  RH  013%=      5-min Rain = 0
KSB1 250227Z 16004KT 12/M16 A3011 RMK A01 T01211157  RH  013%=      5-min Rain = 0
KSB1 250228Z 17004KT 12/M16 A3011 RMK A01 T01211157  RH  013%=      5-min Rain = 0
KSB1 250229Z 17004KT 12/M16 A3011 RMK A01 T01211157  RH  013%=      5-min Rain = 0
KSB1 250230Z 17004KT 12/M16 A3011 RMK A01 T01211157  RH  013%=      5-min Rain = 0
KSB1 250231Z 17004KT 12/M16 A3011 RMK A01 T01201157  RH  013%=      5-min Rain = 0
KSB1 250232Z 18004KT 12/M16 A3011 RMK A01 T01201157  RH  013%=      5-min Rain = 0
KSB1 250233Z 18003KT 12/M16 A3011 RMK A01 T01201157  RH  013%=      5-min Rain = 0
KSB1 250234Z 17003KT 12/M16 A3011 RMK A01 T01201157  RH  013%=      5-min Rain = 0
KSB1 250235Z 17003KT 12/M16 A3011 RMK A01 T01191157  RH  013%=      5-min Rain = 0
KSB1 250236Z 15003KT 12/M16 A3011 RMK A01 T01191157  RH  013%=      5-min Rain = 0
KSB1 250237Z 14003KT 12/M16 A3011 RMK A01 T01181157  RH  013%=      5-min Rain = 0
KSB1 250238Z 13002KT 12/M16 A3011 RMK A01 T01181157  RH  013%=      5-min Rain = 0
KSB1 250239Z 12002KT 12/M16 A3011 RMK A01 T01171158  RH  013%=      5-min Rain = 0
KSB1 250240Z 08002KT 12/M16 A3011 RMK A01 T01171158  RH  013%=      5-min Rain = 0
KSB1 250241Z 07004KT 11/M16 A3011 RMK A01 T01141157  RH  013%=      5-min Rain = 0
KSB1 250242Z 05003KT 11/M16 A3011 RMK A01 T01111157  RH  014%=      5-min Rain = 0
KSB1 250243Z 05003KT 11/M16 A3011 RMK A01 T01091158  RH  014%=      5-min Rain = 0
KSB1 250244Z 05004KT 11/M16 A3011 RMK A01 T01091157  RH  014%=      5-min Rain = 0
KSB1 250245Z 05004KT 11/M16 A3011 RMK A01 T01081157  RH  014%=      5-min Rain = 0
KSB1 250246Z 05004KT 11/M16 A3011 RMK A01 T01081157  RH  014%=      5-min Rain = 0
KSB1 250247Z 05004KT 11/M16 A3011 RMK A01 T01081158  RH  014%=      5-min Rain = 0
KSB1 250248Z 06004KT 11/M16 A3011 RMK A01 T01071158  RH  014%=      5-min Rain = 0
KSB1 250249Z 07004KT 11/M16 A3011 RMK A01 T01051156  RH  014%=      5-min Rain = 0
KSB1 250250Z 06003KT 10/M16 A301 RMK A01 T01031157  RH  014%=      5-min Rain = 0
KSB1 250251Z 06003KT 10/M16 A301 RMK A01 T01031158  RH  014%=      5-min Rain = 0
KSB1 250252Z 07003KT 10/M16 A301 RMK A01 T01041159  RH  014%=      5-min Rain = 0
KSB1 250253Z 07002KT 11/M16 A301 RMK A01 T01051159  RH  014%=      5-min Rain = 0
KSB1 250254Z 09002KT 11/M16 A301 RMK A01 T01051160  RH  014%=      5-min Rain = 0
KSB1 250255Z 11002KT 11/M16 A301 RMK A01 T01061161  RH  014%=      5-min Rain = 0
KSB1 250256Z 12002KT 11/M16 A301 RMK A01 T01061162  RH  014%=      5-min Rain = 0
KSB1 250257Z 13002KT 11/M16 A301 RMK A01 T01071162  RH  014%=      5-min Rain = 0
KSB1 250258Z 13002KT 11/M16 A301 RMK A01 T01071163  RH  013%=      5-min Rain = 0
KSB1 250259Z 14002KT 11/M16 A301 RMK A01 T01081163  RH  013%=      5-min Rain = 0
KSB1 250300Z 15002KT 11/M16 A3011 RMK A01 T01081163  RH  013%=      5-min Rain = 0
KSB1 250301Z 16003KT 11/M16 A3011 RMK A01 T01091163  RH  013%=      5-min Rain = 0
KSB1 250302Z 15003KT 11/M16 A3011 RMK A01 T01101163  RH  013%=      5-min Rain = 0
KSB1 250303Z 14002KT 11/M16 A3011 RMK A01 T01101163  RH  013%=      5-min Rain = 0
KSB1 250304Z 14003KT 11/M16 A3011 RMK A01 T01091163  RH  013%=      5-min Rain = 0
KSB1 250305Z 14003KT 11/M16 A301 RMK A01 T01091164  RH  013%=      5-min Rain = 0
KSB1 250306Z 14002KT 11/M16 A3011 RMK A01 T01081164  RH  013%=      5-min Rain = 0
KSB1 250307Z 14002KT 11/M16 A3011 RMK A01 T01081163  RH  013%=      5-min Rain = 0
KSB1 250308Z 12002KT 11/M16 A3011 RMK A01 T01071163  RH  013%=      5-min Rain = 0
KSB1 250309Z 12003KT 11/M16 A3011 RMK A01 T01071164  RH  013%=      5-min Rain = 0
KSB1 250310Z 12002KT 11/M16 A3011 RMK A01 T01081164  RH  013%=      5-min Rain = 0
KSB1 250311Z 13003KT 11/M16 A3011 RMK A01 T01091164  RH  013%=      5-min Rain = 0
KSB1 250312Z 14003KT 11/M16 A3011 RMK A01 T01091164  RH  013%=      5-min Rain = 0
KSB1 250313Z 14003KT 11/M17 A3011 RMK A01 T01101165  RH  013%=      5-min Rain = 0
KSB1 250314Z 15003KT 11/M17 A3011 RMK A01 T01101165  RH  013%=      5-min Rain = 0
KSB1 250315Z 15003KT 11/M17 A3011 RMK A01 T01101165  RH  013%=      5-min Rain = 0
KSB1 250316Z 15003KT 11/M16 A3011 RMK A01 T01101164  RH  013%=      5-min Rain = 0
KSB1 250317Z 15003KT 11/M17 A3011 RMK A01 T01091165  RH  013%=      5-min Rain = 0
KSB1 250318Z 16004KT 11/M17 A3011 RMK A01 T01091165  RH  013%=      5-min Rain = 0
KSB1 250319Z 15005KT 11/M16 A3011 RMK A01 T01091164  RH  013%=      5-min Rain = 0
KSB1 250320Z 15004KT 11/M16 A3011 RMK A01 T01091162  RH  013%=      5-min Rain = 0
KSB1 250321Z 15005KT 11/M16 A3011 RMK A01 T01081161  RH  014%=      5-min Rain = 0
KSB1 250322Z 15005KT 11/M16 A3011 RMK A01 T01071159  RH  014%=      5-min Rain = 0
KSB1 250323Z 15006KT 11/M16 A3011 RMK A01 T01061158  RH  014%=      5-min Rain = 0
KSB1 250324Z 15007KT 11/M16 A3011 RMK A01 T01051157  RH  014%=      5-min Rain = 0
KSB1 250325Z 16006KT 10/M16 A3011 RMK A01 T01041157  RH  014%=      5-min Rain = 0
KSB1 250326Z 15006KT 10/M16 A3011 RMK A01 T01031156  RH  015%=      5-min Rain = 0
KSB1 250327Z 15006KT 10/M16 A3011 RMK A01 T01031155  RH  015%=      5-min Rain = 0
KSB1 250328Z 16006KT 10/M16 A3011 RMK A01 T01021156  RH  015%=      5-min Rain = 0
KSB1 250329Z 15006KT 10/M16 A3011 RMK A01 T01021156  RH  015%=      5-min Rain = 0
KSB1 250330Z 15006KT 10/M16 A3011 RMK A01 T01011155  RH  015%=      5-min Rain = 0
KSB1 250331Z 17007KT 10/M16 A3011 RMK A01 T01011155  RH  015%=      5-min Rain = 0
KSB1 250332Z 17007KT 10/M16 A3011 RMK A01 T01001156  RH  015%=      5-min Rain = 0
KSB1 250333Z 16007KT 10/M16 A3011 RMK A01 T00971157  RH  015%=      5-min Rain = 0
KSB1 250334Z 16006KT 10/M16 A3011 RMK A01 T00961157  RH  015%=      5-min Rain = 0
KSB1 250335Z 16006KT 10/M16 A3011 RMK A01 T00951156  RH  015%=      5-min Rain = 0
KSB1 250336Z 17007KT 09/M16 A3011 RMK A01 T00941156  RH  015%=      5-min Rain = 0
KSB1 250337Z 17007KT 09/M16 A3011 RMK A01 T00921157  RH  015%=      5-min Rain = 0
KSB1 250338Z 17007KT 09/M16 A3011 RMK A01 T00901158  RH  016%=      5-min Rain = 0
KSB1 250339Z 16007KT 09/M16 A3011 RMK A01 T00891158  RH  016%=      5-min Rain = 0
KSB1 250340Z 17007KT 09/M16 A3011 RMK A01 T00891156  RH  016%=      5-min Rain = 0
KSB1 250341Z 17008KT 09/M16 A3011 RMK A01 T00881155  RH  016%=      5-min Rain = 0
KSB1 250342Z 16008KT 09/M15 A3011 RMK A01 T00871154  RH  016%=      5-min Rain = 0
KSB1 250343Z 15007KT 09/M15 A3011 RMK A01 T00871152  RH  017%=      5-min Rain = 0
KSB1 250344Z 15007KT 09/M15 A3011 RMK A01 T00871151  RH  017%=      5-min Rain = 0
KSB1 250345Z 16007KT 09/M15 A3011 RMK A01 T00871150  RH  017%=      5-min Rain = 0
KSB1 250346Z 16007KT 09/M15 A3011 RMK A01 T00871150  RH  017%=      5-min Rain = 0
KSB1 250347Z 16006KT 09/M15 A3011 RMK A01 T00851151  RH  017%=      5-min Rain = 0
KSB1 250348Z 15007KT 08/M15 A3011 RMK A01 T00841151  RH  017%=      5-min Rain = 0
KSB1 250349Z 15007KT 08/M15 A3012 RMK A01 T00841149  RH  017%=      5-min Rain = 0
KSB1 250350Z 16007KT 09/M15 A3012 RMK A01 T00851148  RH  018%=      5-min Rain = 0
KSB1 250351Z 16006KT 09/M15 A3012 RMK A01 T00851148  RH  018%=      5-min Rain = 0
KSB1 250352Z 15006KT 09/M15 A3012 RMK A01 T00861147  RH  018%=      5-min Rain = 0
KSB1 250353Z 15007KT 09/M15 A3012 RMK A01 T00861146  RH  018%=      5-min Rain = 0
KSB1 250354Z 15007KT 09/M15 A3012 RMK A01 T00861146  RH  018%=      5-min Rain = 0
KSB1 250355Z 15007KT 09/M15 A3012 RMK A01 T00861145  RH  018%=      5-min Rain = 0
KSB1 250356Z 15006KT 09/M15 A3012 RMK A01 T00851145  RH  018%=      5-min Rain = 0
KSB1 250357Z 15006KT 09/M15 A3012 RMK A01 T00851145  RH  018%=      5-min Rain = 0
KSB1 250358Z 15007KT 09/M14 A3012 RMK A01 T00851144  RH  018%=      5-min Rain = 0
KSB1 250359Z 15006KT 09/M14 A3012 RMK A01 T00851144  RH  018%=      5-min Rain = 0
KSB1 250400Z 15006KT 09/M14 A3012 RMK A01 T00851143  RH  018%=      5-min Rain = 0
KSB1 250401Z 16006KT 09/M14 A3012 RMK A01 T00851143  RH  018%=      5-min Rain = 0
KSB1 250402Z 16006KT 08/M14 A3012 RMK A01 T00841143  RH  018%=      5-min Rain = 0
KSB1 250403Z 15006KT 08/M14 A3012 RMK A01 T00841143  RH  018%=      5-min Rain = 0
KSB1 250404Z 15006KT 08/M14 A3012 RMK A01 T00841142  RH  019%=      5-min Rain = 0
KSB1 250405Z 15006KT 08/M14 A3012 RMK A01 T00841142  RH  019%=      5-min Rain = 0
KSB1 250406Z 15006KT 08/M14 A3012 RMK A01 T00841141  RH  019%=      5-min Rain = 0
KSB1 250407Z 15005KT 08/M14 A3012 RMK A01 T00841141  RH  019%=      5-min Rain = 0
KSB1 250408Z 14006KT 08/M14 A3012 RMK A01 T00841141  RH  019%=      5-min Rain = 0
KSB1 250409Z 14006KT 08/M14 A3012 RMK A01 T00841140  RH  019%=      5-min Rain = 0
KSB1 250410Z 15006KT 08/M14 A3012 RMK A01 T00841140  RH  019%=      5-min Rain = 0
KSB1 250411Z 15006KT 08/M14 A3012 RMK A01 T00841139  RH  019%=      5-min Rain = 0
KSB1 250412Z 15006KT 09/M14 A3012 RMK A01 T00851138  RH  019%=      5-min Rain = 0
KSB1 250413Z 15006KT 08/M14 A3012 RMK A01 T00841139  RH  019%=      5-min Rain = 0
KSB1 250414Z 15006KT 08/M14 A3012 RMK A01 T00831138  RH  019%=      5-min Rain = 0
KSB1 250415Z 15006KT 08/M14 A3012 RMK A01 T00831137  RH  019%=      5-min Rain = 0
KSB1 250416Z 14007KT 08/M14 A3012 RMK A01 T00831137  RH  019%=      5-min Rain = 0
KSB1 250417Z 14006KT 08/M14 A3012 RMK A01 T00831137  RH  019%=      5-min Rain = 0
KSB1 250418Z 14006KT 08/M14 A3012 RMK A01 T00831136  RH  020%=      5-min Rain = 0
KSB1 250419Z 15006KT 08/M14 A3012 RMK A01 T00831136  RH  020%=      5-min Rain = 0
KSB1 250420Z 15006KT 08/M14 A3012 RMK A01 T00831136  RH  020%=      5-min Rain = 0
KSB1 250421Z 15006KT 08/M14 A3012 RMK A01 T00821137  RH  020%=      5-min Rain = 0
KSB1 250422Z 14006KT 08/M14 A3012 RMK A01 T00811137  RH  020%=      5-min Rain = 0
KSB1 250423Z 14006KT 08/M14 A3012 RMK A01 T00811137  RH  020%=      5-min Rain = 0
KSB1 250424Z 14006KT 08/M14 A3012 RMK A01 T00821136  RH  020%=      5-min Rain = 0
KSB1 250425Z 14006KT 08/M14 A3012 RMK A01 T00821135  RH  020%=      5-min Rain = 0
KSB1 250426Z 14006KT 08/M13 A3012 RMK A01 T00831133  RH  020%=      5-min Rain = 0
KSB1 250427Z 14006KT 08/M13 A3012 RMK A01 T00841133  RH  020%=      5-min Rain = 0
KSB1 250428Z 14006KT 09/M13 A3012 RMK A01 T00851133  RH  020%=      5-min Rain = 0
KSB1 250429Z 15005KT 08/M13 A3012 RMK A01 T00841133  RH  020%=      5-min Rain = 0
KSB1 250430Z 15005KT 09/M13 A3012 RMK A01 T00851133  RH  020%=      5-min Rain = 0
KSB1 250431Z 15005KT 08/M13 A3012 RMK A01 T00841134  RH  020%=      5-min Rain = 0
KSB1 250432Z 14004KT 08/M14 A3012 RMK A01 T00841135  RH  020%=      5-min Rain = 0
KSB1 250433Z 14005KT 08/M14 A3012 RMK A01 T00841135  RH  020%=      5-min Rain = 0
KSB1 250434Z 13004KT 08/M13 A3012 RMK A01 T00841134  RH  020%=      5-min Rain = 0
KSB1 250435Z 13004KT 09/M13 A3012 RMK A01 T00851134  RH  020%=      5-min Rain = 0
KSB1 250436Z 13004KT 09/M13 A3012 RMK A01 T00851133  RH  020%=      5-min Rain = 0
KSB1 250437Z 13005KT 09/M13 A3012 RMK A01 T00861131  RH  020%=      5-min Rain = 0
KSB1 250438Z 13006KT 09/M13 A3012 RMK A01 T00871131  RH  020%=      5-min Rain = 0
KSB1 250439Z 13006KT 09/M13 A3012 RMK A01 T00881130  RH  020%=      5-min Rain = 0
KSB1 250440Z 12005KT 09/M13 A3012 RMK A01 T00881129  RH  020%=      5-min Rain = 0
KSB1 250441Z 13005KT 09/M13 A3012 RMK A01 T00881129  RH  020%=      5-min Rain = 0
KSB1 250442Z 13006KT 09/M13 A3012 RMK A01 T00871130  RH  020%=      5-min Rain = 0
KSB1 250443Z 13005KT 09/M13 A3012 RMK A01 T00871130  RH  020%=      5-min Rain = 0
KSB1 250444Z 12005KT 09/M13 A3012 RMK A01 T00851130  RH  020%=      5-min Rain = 0
KSB1 250445Z 12005KT 09/M13 A3012 RMK A01 T00851130  RH  020%=      5-min Rain = 0
KSB1 250446Z 12005KT 08/M13 A3012 RMK A01 T00841129  RH  021%=      5-min Rain = 0
KSB1 250447Z 12005KT 08/M13 A3012 RMK A01 T00831129  RH  021%=      5-min Rain = 0
KSB1 250448Z 12005KT 08/M13 A3012 RMK A01 T00831129  RH  021%=      5-min Rain = 0
KSB1 250449Z 13004KT 08/M13 A3012 RMK A01 T00831129  RH  021%=      5-min Rain = 0
KSB1 250450Z 13005KT 08/M13 A3012 RMK A01 T00821129  RH  021%=      5-min Rain = 0
KSB1 250451Z 13005KT 08/M13 A3012 RMK A01 T00821128  RH  021%=      5-min Rain = 0
KSB1 250452Z 14005KT 08/M13 A3012 RMK A01 T00811128  RH  021%=      5-min Rain = 0
KSB1 250453Z 14005KT 08/M13 A3012 RMK A01 T00791128  RH  022%=      5-min Rain = 0
KSB1 250454Z 14005KT 08/M13 A3012 RMK A01 T00791127  RH  022%=      5-min Rain = 0
KSB1 250455Z 14006KT 08/M13 A3012 RMK A01 T00791127  RH  022%=      5-min Rain = 0
KSB1 250456Z 15005KT 08/M13 A3012 RMK A01 T00791126  RH  022%=      5-min Rain = 0
KSB1 250457Z 15005KT 08/M13 A3012 RMK A01 T00781127  RH  022%=      5-min Rain = 0
KSB1 250458Z 16004KT 08/M13 A3012 RMK A01 T00761128  RH  022%=      5-min Rain = 0
KSB1 250459Z 17004KT 08/M13 A3012 RMK A01 T00751129  RH  022%=      5-min Rain = 0
KSB1 250500Z 17004KT 07/M13 A3012 RMK A01 T00741129  RH  022%=      5-min Rain = 0
KSB1 250501Z 17005KT 07/M13 A3012 RMK A01 T00731128  RH  022%=      5-min Rain = 0
KSB1 250502Z 17005KT 07/M13 A3012 RMK A01 T00731127  RH  023%=      5-min Rain = 0
KSB1 250503Z 17005KT 07/M13 A3012 RMK A01 T00731127  RH  023%=      5-min Rain = 0
KSB1 250504Z 17005KT 07/M13 A3012 RMK A01 T00731127  RH  023%=      5-min Rain = 0
KSB1 250505Z 17005KT 07/M13 A3012 RMK A01 T00731127  RH  023%=      5-min Rain = 0
KSB1 250506Z 17005KT 07/M13 A3012 RMK A01 T00731127  RH  023%=      5-min Rain = 0
KSB1 250507Z 17006KT 07/M13 A3012 RMK A01 T00731127  RH  023%=      5-min Rain = 0
KSB1 250508Z 17006KT 07/M13 A3012 RMK A01 T00721127  RH  023%=      5-min Rain = 0
KSB1 250509Z 17006KT 07/M13 A3012 RMK A01 T00721127  RH  023%=      5-min Rain = 0
KSB1 250510Z 17006KT 07/M13 A3012 RMK A01 T00711127  RH  023%=      5-min Rain = 0
KSB1 250511Z 16006KT 07/M13 A3012 RMK A01 T00711126  RH  023%=      5-min Rain = 0
KSB1 250512Z 16006KT 07/M13 A3012 RMK A01 T00711126  RH  023%=      5-min Rain = 0
KSB1 250513Z 17006KT 07/M13 A3012 RMK A01 T00701126  RH  023%=      5-min Rain = 0
KSB1 250514Z 16006KT 07/M13 A3012 RMK A01 T00701127  RH  023%=      5-min Rain = 0
KSB1 250515Z 16006KT 07/M13 A3012 RMK A01 T00701126  RH  023%=      5-min Rain = 0
KSB1 250516Z 16006KT 07/M13 A3012 RMK A01 T00691126  RH  023%=      5-min Rain = 0
KSB1 250517Z 16006KT 07/M12 A3012 RMK A01 T00691124  RH  024%=      5-min Rain = 0
KSB1 250518Z 16006KT 07/M12 A3012 RMK A01 T00691124  RH  024%=      5-min Rain = 0
KSB1 250519Z 17005KT 07/M12 A3012 RMK A01 T00681124  RH  024%=      5-min Rain = 0
KSB1 250520Z 17005KT 07/M12 A3012 RMK A01 T00681124  RH  024%=      5-min Rain = 0
KSB1 250521Z 17005KT 07/M12 A3012 RMK A01 T00681124  RH  024%=      5-min Rain = 0
KSB1 250522Z 18005KT 07/M12 A3013 RMK A01 T00681123  RH  024%=      5-min Rain = 0
KSB1 250523Z 17005KT 07/M12 A3013 RMK A01 T00681123  RH  024%=      5-min Rain = 0
KSB1 250524Z 17005KT 07/M12 A3013 RMK A01 T00681122  RH  024%=      5-min Rain = 0
KSB1 250525Z 17005KT 07/M12 A3013 RMK A01 T00681121  RH  025%=      5-min Rain = 0
KSB1 250526Z 18004KT 07/M12 A3013 RMK A01 T00681120  RH  025%=      5-min Rain = 0
KSB1 250527Z 18004KT 07/M12 A3013 RMK A01 T00681120  RH  025%=      5-min Rain = 0
KSB1 250528Z 18004KT 07/M12 A3013 RMK A01 T00681120  RH  025%=      5-min Rain = 0
KSB1 250529Z 19004KT 07/M12 A3012 RMK A01 T00671120  RH  025%=      5-min Rain = 0
KSB1 250530Z 18004KT 07/M12 A3012 RMK A01 T00661121  RH  025%=      5-min Rain = 0
KSB1 250531Z 18004KT 07/M12 A3012 RMK A01 T00651120  RH  025%=      5-min Rain = 0
KSB1 250532Z 18004KT 07/M12 A3012 RMK A01 T00651120  RH  025%=      5-min Rain = 0
KSB1 250533Z 17005KT 07/M12 A3012 RMK A01 T00651119  RH  026%=      5-min Rain = 0
KSB1 250534Z 17005KT 06/M12 A3012 RMK A01 T00641118  RH  026%=      5-min Rain = 0
KSB1 250535Z 17005KT 06/M12 A3012 RMK A01 T00641117  RH  026%=      5-min Rain = 0
KSB1 250536Z 17006KT 06/M12 A3012 RMK A01 T00641117  RH  026%=      5-min Rain = 0
KSB1 250537Z 17006KT 06/M12 A3012 RMK A01 T00641116  RH  026%=      5-min Rain = 0
KSB1 250538Z 17005KT 06/M12 A3012 RMK A01 T00641115  RH  026%=      5-min Rain = 0
KSB1 250539Z 17006KT 06/M12 A3012 RMK A01 T00641115  RH  027%=      5-min Rain = 0
KSB1 250540Z 17005KT 06/M12 A3012 RMK A01 T00641115  RH  027%=      5-min Rain = 0
KSB1 250541Z 17005KT 06/M11 A3012 RMK A01 T00641114  RH  027%=      5-min Rain = 0
KSB1 250542Z 17006KT 06/M11 A3012 RMK A01 T00641114  RH  027%=      5-min Rain = 0
KSB1 250543Z 17005KT 06/M11 A3012 RMK A01 T00641113  RH  027%=      5-min Rain = 0
KSB1 250544Z 17005KT 06/M11 A3012 RMK A01 T00641112  RH  027%=      5-min Rain = 0
KSB1 250545Z 17004KT 06/M11 A3012 RMK A01 T00641113  RH  027%=      5-min Rain = 0
KSB1 250546Z 17004KT 06/M11 A3012 RMK A01 T00641113  RH  027%=      5-min Rain = 0
KSB1 250547Z 17004KT 06/M11 A3012 RMK A01 T00641112  RH  027%=      5-min Rain = 0
KSB1 250548Z 17004KT 07/M11 A3012 RMK A01 T00651111  RH  027%=      5-min Rain = 0
KSB1 250549Z 17005KT 07/M11 A3012 RMK A01 T00651111  RH  027%=      5-min Rain = 0
KSB1 250550Z 17005KT 07/M11 A3012 RMK A01 T00661110  RH  027%=      5-min Rain = 0
KSB1 250551Z 17005KT 07/M11 A3012 RMK A01 T00661110  RH  027%=      5-min Rain = 0
KSB1 250552Z 16005KT 07/M11 A3012 RMK A01 T00661111  RH  027%=      5-min Rain = 0
KSB1 250553Z 17005KT 07/M11 A3012 RMK A01 T00651111  RH  027%=      5-min Rain = 0
KSB1 250554Z 16006KT 06/M11 A3012 RMK A01 T00641111  RH  027%=      5-min Rain = 0
KSB1 250555Z 16006KT 06/M11 A3012 RMK A01 T00641110  RH  028%=      5-min Rain = 0
KSB1 250556Z 16006KT 06/M11 A3012 RMK A01 T00631110  RH  028%=      5-min Rain = 0
KSB1 250557Z 16006KT 06/M11 A3012 RMK A01 T00631109  RH  028%=      5-min Rain = 0
KSB1 250558Z 16006KT 06/M11 A3012 RMK A01 T00631109  RH  028%=      5-min Rain = 0
KSB1 250559Z 16006KT 06/M11 A3012 RMK A01 T00631108  RH  028%=      5-min Rain = 0

Page generated in 0.126 seconds.